LGR888 PANC-AGGH
Flight info
| Callsign | LGR888 |
|---|---|
| Flight time | 12h 40m |
| Altitude | 34000 |
| Route | NAPTO DCT PDN J623 CDB J115 DUT DCT 51N170W 41N180W 40N180W 39N180W 38N180W 37N180W 36N180W 35N180W 34N180W 33N180W 32N180W 31N180W 30N180W 29N180W 28N180W 27N180W 26N180W 25N180W 24N180W 23N180W 22N180W 21N180W 20N180W 19N180W 18N180W 17N180W 16N180W 15N180W 06N170E 02S160E DCT BIKSU BIKSU1A |
| Aircraft | A339/H-SADE1E2E3GHIJ3J5M1P2RWXY/LB2D1 |
Departure
| Time | 2026-04-25 07:21 |
|---|---|
| Airport | Ted Stevens Anchorage International Airport (PANC) |
Arrival
| Time | 2026-04-25 20:01 |
|---|---|
| Airport | Honiara International Airport (AGGH) |
| Time | Latitude | Longitude | Altitude | Speed | Heading |
|---|---|---|---|---|---|
| 2026-04-25 06:42 | 61.17651 | -149.99260 | 169 ft | 0 kts | 69° |
| 2026-04-25 07:04 | 61.17651 | -149.99262 | 169 ft | 0 kts | 69° |
| 2026-04-25 07:05 | 61.17648 | -149.99280 | 169 ft | 2 kts | 69° |
| 2026-04-25 07:05 | 61.17643 | -149.99306 | 169 ft | 2 kts | 69° |
| 2026-04-25 07:05 | 61.17638 | -149.99332 | 169 ft | 2 kts | 70° |
| 2026-04-25 07:05 | 61.17633 | -149.99359 | 169 ft | 2 kts | 79° |
| 2026-04-25 07:06 | 61.17633 | -149.99387 | 169 ft | 2 kts | 102° |
| 2026-04-25 07:06 | 61.17638 | -149.99419 | 169 ft | 2 kts | 124° |
| 2026-04-25 07:06 | 61.17649 | -149.99443 | 169 ft | 2 kts | 146° |
| 2026-04-25 07:06 | 61.17657 | -149.99452 | 169 ft | 0 kts | 159° |
| 2026-04-25 07:07 | 61.17661 | -149.99455 | 169 ft | 0 kts | 160° |
| 2026-04-25 07:09 | 61.17654 | -149.99449 | 169 ft | 2 kts | 159° |
| 2026-04-25 07:09 | 61.17625 | -149.99426 | 169 ft | 7 kts | 158° |
| 2026-04-25 07:10 | 61.17576 | -149.99385 | 169 ft | 10 kts | 159° |
| 2026-04-25 07:10 | 61.17506 | -149.99330 | 169 ft | 13 kts | 159° |
| 2026-04-25 07:10 | 61.17433 | -149.99272 | 169 ft | 13 kts | 159° |
| 2026-04-25 07:10 | 61.17358 | -149.99216 | 169 ft | 13 kts | 161° |
| 2026-04-25 07:11 | 61.17280 | -149.99162 | 169 ft | 14 kts | 161° |
| 2026-04-25 07:11 | 61.17198 | -149.99101 | 169 ft | 14 kts | 160° |
| 2026-04-25 07:11 | 61.17119 | -149.99100 | 169 ft | 13 kts | 195° |
| 2026-04-25 07:11 | 61.17061 | -149.99168 | 169 ft | 2 kts | 212° |
| 2026-04-25 07:12 | 61.17055 | -149.99156 | 169 ft | 1 kts | 103° |
| 2026-04-25 07:12 | 61.17059 | -149.99149 | 169 ft | 0 kts | 22° |
| 2026-04-25 07:13 | 61.17077 | -149.99132 | 169 ft | 7 kts | 24° |
| 2026-04-25 07:13 | 61.17139 | -149.99103 | 169 ft | 11 kts | 1° |
| 2026-04-25 07:13 | 61.17157 | -149.99109 | 169 ft | 0 kts | 345° |
| 2026-04-25 07:13 | 61.17167 | -149.99114 | 169 ft | 2 kts | 351° |
| 2026-04-25 07:14 | 61.17210 | -149.99135 | 169 ft | 9 kts | 336° |
| 2026-04-25 07:14 | 61.17263 | -149.99213 | 169 ft | 12 kts | 305° |
| 2026-04-25 07:14 | 61.17287 | -149.99403 | 169 ft | 16 kts | 270° |
| 2026-04-25 07:14 | 61.17239 | -149.99545 | 169 ft | 14 kts | 182° |
| 2026-04-25 07:15 | 61.17156 | -149.99542 | 169 ft | 11 kts | 196° |
| 2026-04-25 07:15 | 61.17130 | -149.99634 | 169 ft | 8 kts | 272° |
| 2026-04-25 07:15 | 61.17128 | -149.99736 | 169 ft | 9 kts | 266° |
| 2026-04-25 07:15 | 61.17125 | -149.99899 | 169 ft | 16 kts | 270° |
| 2026-04-25 07:16 | 61.17124 | -150.00140 | 169 ft | 17 kts | 270° |
| 2026-04-25 07:16 | 61.17128 | -150.00360 | 169 ft | 17 kts | 272° |
| 2026-04-25 07:16 | 61.17128 | -150.00558 | 169 ft | 2 kts | 269° |
| 2026-04-25 07:17 | 61.17128 | -150.00565 | 169 ft | 3 kts | 269° |
| 2026-04-25 07:17 | 61.17127 | -150.00655 | 169 ft | 11 kts | 269° |
| 2026-04-25 07:17 | 61.17125 | -150.00839 | 169 ft | 16 kts | 269° |
| 2026-04-25 07:17 | 61.17121 | -150.00996 | 169 ft | 4 kts | 250° |
| 2026-04-25 07:18 | 61.17104 | -150.01010 | 169 ft | 3 kts | 174° |
| 2026-04-25 07:18 | 61.17089 | -150.01000 | 169 ft | 0 kts | 155° |
| 2026-04-25 07:18 | 61.17080 | -150.00989 | 169 ft | 3 kts | 148° |
| 2026-04-25 07:19 | 61.17050 | -150.00955 | 169 ft | 8 kts | 155° |
| 2026-04-25 07:19 | 61.17000 | -150.00885 | 169 ft | 10 kts | 128° |
| 2026-04-25 07:19 | 61.16980 | -150.00758 | 169 ft | 8 kts | 93° |
| 2026-04-25 07:19 | 61.16980 | -150.00752 | 169 ft | 0 kts | 92° |
| 2026-04-25 07:20 | 61.16978 | -150.00537 | 169 ft | 44 kts | 90° |
| 2026-04-25 07:20 | 61.16978 | -149.99628 | 169 ft | 99 kts | 90° |
| 2026-04-25 07:20 | 61.16984 | -149.98065 | 169 ft | 146 kts | 89° |
| 2026-04-25 07:20 | 61.16989 | -149.95914 | 187 ft | 184 kts | 89° |
| 2026-04-25 07:21 | 61.16998 | -149.93449 | 642 ft | 189 kts | 89° |
| 2026-04-25 07:21 | 61.17003 | -149.91032 | 1436 ft | 179 kts | 89° |
| 2026-04-25 07:21 | 61.16908 | -149.88684 | 2160 ft | 172 kts | 114° |
| 2026-04-25 07:21 | 61.16195 | -149.87024 | 2495 ft | 186 kts | 151° |
| 2026-04-25 07:22 | 61.15039 | -149.86452 | 2793 ft | 205 kts | 182° |
| 2026-04-25 07:22 | 61.13797 | -149.87291 | 3087 ft | 228 kts | 215° |
| 2026-04-25 07:22 | 61.12907 | -149.89691 | 3403 ft | 250 kts | 250° |
| 2026-04-25 07:22 | 61.12722 | -149.92912 | 3867 ft | 262 kts | 275° |
| 2026-04-25 07:23 | 61.12855 | -149.96286 | 4505 ft | 264 kts | 263° |
| 2026-04-25 07:23 | 61.12366 | -149.99422 | 5101 ft | 259 kts | 229° |
| 2026-04-25 07:23 | 61.11188 | -150.01480 | 5745 ft | 249 kts | 197° |
| 2026-04-25 07:23 | 61.09727 | -150.02347 | 6389 ft | 246 kts | 190° |
| 2026-04-25 07:24 | 61.08165 | -150.03262 | 7018 ft | 250 kts | 195° |
| 2026-04-25 07:24 | 61.06676 | -150.04472 | 7617 ft | 254 kts | 203° |
| 2026-04-25 07:24 | 61.05287 | -150.06035 | 8214 ft | 256 kts | 207° |
| 2026-04-25 07:24 | 61.03907 | -150.07695 | 8795 ft | 258 kts | 208° |
| 2026-04-25 07:25 | 61.02496 | -150.09392 | 9373 ft | 259 kts | 208° |
| 2026-04-25 07:25 | 61.01019 | -150.11139 | 9914 ft | 259 kts | 208° |
| 2026-04-25 07:25 | 60.99576 | -150.12820 | 10144 ft | 269 kts | 208° |
| 2026-04-25 07:25 | 60.98072 | -150.14558 | 10367 ft | 279 kts | 208° |
| 2026-04-25 07:26 | 60.96386 | -150.16495 | 10609 ft | 291 kts | 208° |
| 2026-04-25 07:26 | 60.94771 | -150.18346 | 10827 ft | 302 kts | 208° |
| 2026-04-25 07:26 | 60.93054 | -150.20305 | 11036 ft | 313 kts | 208° |
| 2026-04-25 07:26 | 60.91272 | -150.22331 | 11267 ft | 324 kts | 208° |
| 2026-04-25 07:27 | 60.89347 | -150.24516 | 11481 ft | 335 kts | 208° |
| 2026-04-25 07:27 | 60.87411 | -150.26706 | 11690 ft | 347 kts | 208° |
| 2026-04-25 07:27 | 60.85415 | -150.28963 | 11995 ft | 354 kts | 208° |
| 2026-04-25 07:27 | 60.83316 | -150.31334 | 12508 ft | 356 kts | 208° |
| 2026-04-25 07:28 | 60.81322 | -150.33586 | 13027 ft | 358 kts | 210° |
| 2026-04-25 07:28 | 60.79365 | -150.36287 | 13507 ft | 361 kts | 218° |
| 2026-04-25 07:28 | 60.77570 | -150.39696 | 14004 ft | 364 kts | 226° |
| 2026-04-25 07:28 | 60.75970 | -150.43633 | 14516 ft | 367 kts | 231° |
| 2026-04-25 07:29 | 60.74390 | -150.47763 | 15044 ft | 370 kts | 231° |
| 2026-04-25 07:29 | 60.72820 | -150.51886 | 15557 ft | 372 kts | 231° |
| 2026-04-25 07:29 | 60.71296 | -150.55865 | 16037 ft | 374 kts | 231° |
| 2026-04-25 07:29 | 60.69711 | -150.59987 | 16590 ft | 376 kts | 231° |
| 2026-04-25 07:30 | 60.68155 | -150.64006 | 17064 ft | 378 kts | 230° |
| 2026-04-25 07:30 | 60.66592 | -150.68027 | 17524 ft | 380 kts | 230° |
| 2026-04-25 07:30 | 60.65017 | -150.72070 | 18010 ft | 382 kts | 230° |
| 2026-04-25 07:30 | 60.63526 | -150.75890 | 18491 ft | 383 kts | 230° |
| 2026-04-25 07:31 | 60.62060 | -150.79639 | 18933 ft | 385 kts | 230° |
| 2026-04-25 07:31 | 60.60495 | -150.83627 | 19361 ft | 387 kts | 230° |
| 2026-04-25 07:31 | 60.59031 | -150.87357 | 19754 ft | 390 kts | 230° |
| 2026-04-25 07:31 | 60.57422 | -150.91452 | 20166 ft | 392 kts | 230° |
| 2026-04-25 07:32 | 60.55843 | -150.95458 | 20583 ft | 393 kts | 230° |
| 2026-04-25 07:32 | 60.54318 | -150.99318 | 20957 ft | 395 kts | 230° |
| 2026-04-25 07:32 | 60.52761 | -151.03253 | 21329 ft | 398 kts | 230° |
| 2026-04-25 07:32 | 60.51149 | -151.07323 | 21718 ft | 399 kts | 230° |
| 2026-04-25 07:33 | 60.49547 | -151.11360 | 22086 ft | 401 kts | 230° |
| 2026-04-25 07:33 | 60.47980 | -151.15306 | 22444 ft | 403 kts | 230° |
| 2026-04-25 07:33 | 60.46392 | -151.19290 | 22806 ft | 404 kts | 230° |
| 2026-04-25 07:33 | 60.44805 | -151.23268 | 23145 ft | 406 kts | 229° |
| 2026-04-25 07:34 | 60.43189 | -151.27315 | 23474 ft | 408 kts | 229° |
| 2026-04-25 07:34 | 60.41571 | -151.31355 | 23806 ft | 410 kts | 230° |
| 2026-04-25 07:34 | 60.39943 | -151.35411 | 24160 ft | 410 kts | 229° |
| 2026-04-25 07:34 | 60.38327 | -151.39435 | 24490 ft | 412 kts | 230° |
| 2026-04-25 07:35 | 60.36675 | -151.43539 | 24779 ft | 414 kts | 229° |
| 2026-04-25 07:35 | 60.34853 | -151.48062 | 25082 ft | 415 kts | 229° |
| 2026-04-25 07:35 | 60.33037 | -151.52560 | 25384 ft | 417 kts | 229° |
| 2026-04-25 07:35 | 60.31210 | -151.57075 | 25672 ft | 418 kts | 229° |
| 2026-04-25 07:36 | 60.29380 | -151.61589 | 25947 ft | 420 kts | 229° |
| 2026-04-25 07:36 | 60.27515 | -151.66180 | 26220 ft | 421 kts | 228° |
| 2026-04-25 07:36 | 60.25677 | -151.70691 | 26479 ft | 423 kts | 228° |
| 2026-04-25 07:36 | 60.23807 | -151.75275 | 26735 ft | 424 kts | 228° |
| 2026-04-25 07:37 | 60.21946 | -151.79826 | 26985 ft | 426 kts | 228° |
| 2026-04-25 07:37 | 60.20073 | -151.84401 | 27237 ft | 427 kts | 228° |
| 2026-04-25 07:37 | 60.18178 | -151.89017 | 27453 ft | 429 kts | 228° |
| 2026-04-25 07:37 | 60.16265 | -151.93668 | 27679 ft | 431 kts | 227° |
| 2026-04-25 07:38 | 60.14441 | -151.98097 | 27904 ft | 432 kts | 227° |
| 2026-04-25 07:38 | 60.12598 | -152.02559 | 28108 ft | 433 kts | 227° |
| 2026-04-25 07:38 | 60.10705 | -152.07141 | 28408 ft | 433 kts | 227° |
| 2026-04-25 07:38 | 60.08796 | -152.11746 | 28736 ft | 431 kts | 227° |
| 2026-04-25 07:39 | 60.06919 | -152.16272 | 29045 ft | 430 kts | 227° |
| 2026-04-25 07:39 | 60.05172 | -152.20473 | 29300 ft | 429 kts | 227° |
| 2026-04-25 07:39 | 60.03443 | -152.24618 | 29540 ft | 429 kts | 227° |
| 2026-04-25 07:39 | 60.01684 | -152.28828 | 29779 ft | 429 kts | 227° |
| 2026-04-25 07:40 | 59.99955 | -152.32964 | 29993 ft | 428 kts | 226° |
| 2026-04-25 07:40 | 59.98222 | -152.37097 | 30207 ft | 428 kts | 226° |
| 2026-04-25 07:40 | 59.96446 | -152.41322 | 30405 ft | 428 kts | 226° |
| 2026-04-25 07:40 | 59.94711 | -152.45447 | 30617 ft | 427 kts | 226° |
| 2026-04-25 07:41 | 59.92955 | -152.49611 | 30807 ft | 427 kts | 226° |
| 2026-04-25 07:41 | 59.91220 | -152.53720 | 30978 ft | 427 kts | 226° |
| 2026-04-25 07:41 | 59.89454 | -152.57892 | 31153 ft | 427 kts | 226° |
| 2026-04-25 07:41 | 59.87696 | -152.62039 | 31350 ft | 427 kts | 226° |
| 2026-04-25 07:42 | 59.85877 | -152.66319 | 31548 ft | 426 kts | 226° |
| 2026-04-25 07:42 | 59.83980 | -152.70781 | 31761 ft | 426 kts | 226° |
| 2026-04-25 07:42 | 59.82063 | -152.75276 | 31986 ft | 425 kts | 226° |
| 2026-04-25 07:42 | 59.80173 | -152.79704 | 32186 ft | 424 kts | 226° |
| 2026-04-25 07:43 | 59.78369 | -152.83923 | 32334 ft | 424 kts | 226° |
| 2026-04-25 07:43 | 59.76557 | -152.88152 | 32474 ft | 425 kts | 226° |
| 2026-04-25 07:43 | 59.74734 | -152.92397 | 32590 ft | 426 kts | 226° |
| 2026-04-25 07:43 | 59.72918 | -152.96622 | 32717 ft | 427 kts | 226° |
| 2026-04-25 07:44 | 59.71064 | -153.00925 | 32881 ft | 427 kts | 226° |
| 2026-04-25 07:44 | 59.69320 | -153.04965 | 33026 ft | 427 kts | 226° |
| 2026-04-25 07:44 | 59.67563 | -153.09027 | 33155 ft | 427 kts | 226° |
| 2026-04-25 07:44 | 59.65710 | -153.13303 | 33271 ft | 428 kts | 226° |
| 2026-04-25 07:45 | 59.63903 | -153.17465 | 33391 ft | 429 kts | 226° |
| 2026-04-25 07:45 | 59.62099 | -153.21617 | 33500 ft | 429 kts | 226° |
| 2026-04-25 07:45 | 59.60257 | -153.25845 | 33613 ft | 430 kts | 226° |
| 2026-04-25 07:45 | 59.58462 | -153.29958 | 33722 ft | 430 kts | 226° |
| 2026-04-25 07:46 | 59.54881 | -153.38142 | 33904 ft | 432 kts | 226° |
| 2026-04-25 07:46 | 59.51290 | -153.46323 | 34085 ft | 435 kts | 226° |
| 2026-04-25 07:47 | 59.47683 | -153.54506 | 34116 ft | 437 kts | 226° |
| 2026-04-25 07:47 | 59.44036 | -153.62753 | 34118 ft | 437 kts | 226° |
| 2026-04-25 07:48 | 59.40107 | -153.71603 | 34107 ft | 437 kts | 225° |
| 2026-04-25 07:48 | 59.36326 | -153.80092 | 34097 ft | 437 kts | 225° |
| 2026-04-25 07:49 | 59.32583 | -153.88461 | 34100 ft | 438 kts | 225° |
| 2026-04-25 07:49 | 59.28804 | -153.96881 | 34104 ft | 439 kts | 225° |
| 2026-04-25 07:50 | 59.24913 | -154.05519 | 34105 ft | 439 kts | 225° |
| 2026-04-25 07:50 | 59.20936 | -154.14313 | 34097 ft | 440 kts | 225° |
| 2026-04-25 07:51 | 59.16933 | -154.23134 | 34079 ft | 439 kts | 225° |
| 2026-04-25 07:51 | 59.13042 | -154.31679 | 34065 ft | 439 kts | 225° |
| 2026-04-25 07:52 | 59.09023 | -154.40462 | 34047 ft | 439 kts | 225° |
| 2026-04-25 07:52 | 59.05022 | -154.49178 | 34030 ft | 439 kts | 225° |
| 2026-04-25 07:53 | 59.01065 | -154.57765 | 33995 ft | 439 kts | 225° |
| 2026-04-25 07:53 | 58.97243 | -154.66025 | 33981 ft | 438 kts | 224° |
| 2026-04-25 07:54 | 58.93335 | -154.74443 | 33970 ft | 437 kts | 225° |
| 2026-04-25 07:54 | 58.89283 | -154.83138 | 33969 ft | 438 kts | 225° |
| 2026-04-25 07:55 | 58.85247 | -154.91771 | 33977 ft | 438 kts | 225° |
| 2026-04-25 07:55 | 58.81377 | -155.00015 | 33982 ft | 439 kts | 225° |
| 2026-04-25 07:56 | 58.77467 | -155.08313 | 33980 ft | 440 kts | 225° |
| 2026-04-25 07:56 | 58.73453 | -155.16805 | 33996 ft | 440 kts | 225° |
| 2026-04-25 07:57 | 58.69523 | -155.25082 | 34020 ft | 440 kts | 225° |
| 2026-04-25 07:57 | 58.65599 | -155.33324 | 34047 ft | 440 kts | 225° |
| 2026-04-25 07:58 | 58.61559 | -155.41775 | 34064 ft | 440 kts | 225° |
| 2026-04-25 07:58 | 58.57734 | -155.49747 | 34066 ft | 441 kts | 225° |
| 2026-04-25 07:59 | 58.54057 | -155.57387 | 34066 ft | 442 kts | 225° |
| 2026-04-25 07:59 | 58.50341 | -155.65082 | 34066 ft | 441 kts | 224° |
| 2026-04-25 08:00 | 58.46580 | -155.72839 | 34060 ft | 441 kts | 224° |
| 2026-04-25 08:00 | 58.42807 | -155.80598 | 34054 ft | 441 kts | 224° |
| 2026-04-25 08:01 | 58.38889 | -155.88629 | 34054 ft | 441 kts | 224° |
| 2026-04-25 08:01 | 58.35028 | -155.96515 | 34047 ft | 442 kts | 224° |
| 2026-04-25 08:02 | 58.31070 | -156.04568 | 34041 ft | 444 kts | 224° |
| 2026-04-25 08:02 | 58.26905 | -156.13019 | 34039 ft | 445 kts | 224° |
| 2026-04-25 08:03 | 58.22683 | -156.21547 | 34038 ft | 445 kts | 224° |
| 2026-04-25 08:03 | 58.18677 | -156.29611 | 34040 ft | 445 kts | 224° |
| 2026-04-25 08:04 | 58.14937 | -156.37114 | 34041 ft | 445 kts | 224° |
| 2026-04-25 08:04 | 58.11188 | -156.44609 | 34045 ft | 445 kts | 224° |
| 2026-04-25 08:05 | 58.07429 | -156.52103 | 34043 ft | 445 kts | 224° |
| 2026-04-25 08:05 | 58.03701 | -156.59509 | 34039 ft | 445 kts | 225° |
| 2026-04-25 08:06 | 57.99972 | -156.66895 | 34039 ft | 445 kts | 224° |
| 2026-04-25 08:06 | 57.96235 | -156.74271 | 34040 ft | 445 kts | 224° |
| 2026-04-25 08:07 | 57.92312 | -156.81990 | 34039 ft | 446 kts | 224° |
| 2026-04-25 08:07 | 57.88532 | -156.89403 | 34034 ft | 446 kts | 224° |
| 2026-04-25 08:08 | 57.84750 | -156.96794 | 34037 ft | 447 kts | 224° |
| 2026-04-25 08:08 | 57.81050 | -157.03999 | 34022 ft | 447 kts | 224° |
| 2026-04-25 08:09 | 57.77313 | -157.11253 | 34030 ft | 447 kts | 224° |
| 2026-04-25 08:09 | 57.73585 | -157.18471 | 34025 ft | 448 kts | 224° |
| 2026-04-25 08:10 | 57.69819 | -157.25742 | 34028 ft | 448 kts | 224° |
| 2026-04-25 08:10 | 57.65829 | -157.33420 | 34027 ft | 448 kts | 224° |
| 2026-04-25 08:11 | 57.61997 | -157.40765 | 34024 ft | 449 kts | 224° |
| 2026-04-25 08:11 | 57.58195 | -157.48033 | 34024 ft | 450 kts | 224° |
| 2026-04-25 08:12 | 57.54269 | -157.55510 | 34022 ft | 450 kts | 224° |
| 2026-04-25 08:12 | 57.50261 | -157.63119 | 34016 ft | 450 kts | 224° |
| 2026-04-25 08:13 | 57.46265 | -157.70683 | 34016 ft | 450 kts | 223° |
| 2026-04-25 08:14 | 57.40283 | -157.81953 | 34007 ft | 450 kts | 223° |
| 2026-04-25 08:14 | 57.36270 | -157.89485 | 34005 ft | 451 kts | 223° |
| 2026-04-25 08:15 | 57.32213 | -157.97072 | 34000 ft | 451 kts | 223° |
| 2026-04-25 08:15 | 57.28191 | -158.04570 | 34003 ft | 451 kts | 223° |
| 2026-04-25 08:16 | 57.24138 | -158.12097 | 34001 ft | 451 kts | 224° |
| 2026-04-25 08:16 | 57.20085 | -158.19601 | 33994 ft | 452 kts | 224° |
| 2026-04-25 08:17 | 57.16037 | -158.27075 | 33987 ft | 452 kts | 224° |
| 2026-04-25 08:17 | 57.11970 | -158.34560 | 33981 ft | 453 kts | 224° |
| 2026-04-25 08:18 | 57.07944 | -158.41942 | 33976 ft | 454 kts | 224° |
| 2026-04-25 08:18 | 57.03878 | -158.49373 | 33979 ft | 453 kts | 224° |
| 2026-04-25 08:19 | 56.99787 | -158.56819 | 33986 ft | 454 kts | 224° |
| 2026-04-25 08:19 | 56.95873 | -158.64504 | 33983 ft | 455 kts | 229° |
| 2026-04-25 08:20 | 56.92373 | -158.72783 | 33980 ft | 456 kts | 233° |
| 2026-04-25 08:20 | 56.89088 | -158.81529 | 33982 ft | 457 kts | 234° |
| 2026-04-25 08:21 | 56.85801 | -158.90227 | 33974 ft | 457 kts | 234° |
| 2026-04-25 08:21 | 56.82482 | -158.98972 | 33967 ft | 457 kts | 234° |
| 2026-04-25 08:22 | 56.79195 | -159.07594 | 33956 ft | 457 kts | 234° |
| 2026-04-25 08:22 | 56.75874 | -159.16275 | 33961 ft | 458 kts | 234° |
| 2026-04-25 08:23 | 56.72555 | -159.24925 | 33959 ft | 457 kts | 234° |
| 2026-04-25 08:23 | 56.69228 | -159.33562 | 33955 ft | 457 kts | 234° |
| 2026-04-25 08:24 | 56.65875 | -159.42236 | 33950 ft | 457 kts | 234° |
| 2026-04-25 08:24 | 56.62519 | -159.50888 | 33948 ft | 458 kts | 234° |
| 2026-04-25 08:25 | 56.59184 | -159.59453 | 33951 ft | 457 kts | 234° |
| 2026-04-25 08:25 | 56.55797 | -159.68118 | 33948 ft | 457 kts | 233° |
| 2026-04-25 08:26 | 56.52435 | -159.76691 | 33957 ft | 457 kts | 233° |
| 2026-04-25 08:26 | 56.49073 | -159.85234 | 33949 ft | 457 kts | 234° |
| 2026-04-25 08:27 | 56.45715 | -159.93739 | 33946 ft | 456 kts | 234° |
| 2026-04-25 08:27 | 56.42323 | -160.02300 | 33946 ft | 457 kts | 234° |
| 2026-04-25 08:28 | 56.38966 | -160.10741 | 33952 ft | 458 kts | 234° |
| 2026-04-25 08:28 | 56.35568 | -160.19258 | 33947 ft | 458 kts | 234° |
| 2026-04-25 08:29 | 56.32160 | -160.27769 | 33948 ft | 457 kts | 234° |
| 2026-04-25 08:29 | 56.28757 | -160.36234 | 33943 ft | 457 kts | 234° |
| 2026-04-25 08:30 | 56.25362 | -160.44655 | 33940 ft | 457 kts | 234° |
| 2026-04-25 08:30 | 56.21930 | -160.53134 | 33937 ft | 457 kts | 234° |
| 2026-04-25 08:31 | 56.18517 | -160.61539 | 33934 ft | 457 kts | 234° |
| 2026-04-25 08:31 | 56.15098 | -160.69926 | 33934 ft | 456 kts | 234° |
| 2026-04-25 08:32 | 56.11681 | -160.78284 | 33930 ft | 456 kts | 234° |
| 2026-04-25 08:32 | 56.08253 | -160.86641 | 33931 ft | 456 kts | 234° |
| 2026-04-25 08:33 | 56.04827 | -160.94963 | 33931 ft | 456 kts | 234° |
| 2026-04-25 08:33 | 56.01229 | -161.03674 | 33932 ft | 456 kts | 234° |
| 2026-04-25 08:34 | 55.97741 | -161.12091 | 34147 ft | 457 kts | 234° |
| 2026-04-25 08:34 | 55.95907 | -161.16502 | 34355 ft | 456 kts | 234° |
| 2026-04-25 08:34 | 55.94055 | -161.20949 | 34543 ft | 455 kts | 234° |
| 2026-04-25 08:34 | 55.92222 | -161.25343 | 34688 ft | 455 kts | 234° |
| 2026-04-25 08:35 | 55.90413 | -161.29671 | 34829 ft | 455 kts | 234° |
| 2026-04-25 08:35 | 55.88587 | -161.34033 | 34975 ft | 455 kts | 234° |
| 2026-04-25 08:35 | 55.86725 | -161.38470 | 35127 ft | 455 kts | 234° |
| 2026-04-25 08:35 | 55.84908 | -161.42795 | 35270 ft | 454 kts | 234° |
| 2026-04-25 08:36 | 55.83100 | -161.47092 | 35420 ft | 454 kts | 234° |
| 2026-04-25 08:36 | 55.81278 | -161.51410 | 35549 ft | 453 kts | 234° |
| 2026-04-25 08:36 | 55.79440 | -161.55759 | 35678 ft | 453 kts | 234° |
| 2026-04-25 08:36 | 55.77646 | -161.60001 | 35796 ft | 453 kts | 234° |
| 2026-04-25 08:37 | 55.75786 | -161.64389 | 35906 ft | 453 kts | 234° |
| 2026-04-25 08:37 | 55.72101 | -161.73059 | 35924 ft | 454 kts | 234° |
| 2026-04-25 08:38 | 55.68547 | -161.81390 | 35925 ft | 454 kts | 234° |
| 2026-04-25 08:38 | 55.64952 | -161.89790 | 35917 ft | 454 kts | 234° |
| 2026-04-25 08:39 | 55.61273 | -161.98360 | 35909 ft | 453 kts | 234° |
| 2026-04-25 08:39 | 55.57643 | -162.06786 | 35904 ft | 453 kts | 234° |
| 2026-04-25 08:40 | 55.54131 | -162.14908 | 35899 ft | 452 kts | 234° |
| 2026-04-25 08:40 | 55.50433 | -162.23427 | 35897 ft | 452 kts | 234° |
| 2026-04-25 08:41 | 55.46710 | -162.31976 | 35900 ft | 452 kts | 234° |
| 2026-04-25 08:41 | 55.42971 | -162.40536 | 35911 ft | 452 kts | 234° |
| 2026-04-25 08:42 | 55.39294 | -162.48923 | 35927 ft | 452 kts | 234° |
| 2026-04-25 08:42 | 55.35572 | -162.57379 | 35938 ft | 452 kts | 234° |
| 2026-04-25 08:43 | 55.31953 | -162.65575 | 35943 ft | 451 kts | 234° |
| 2026-04-25 08:43 | 55.28237 | -162.74022 | 35944 ft | 450 kts | 236° |
| 2026-04-25 08:44 | 55.25064 | -162.82321 | 35945 ft | 448 kts | 240° |
| 2026-04-25 08:44 | 55.22006 | -162.91446 | 35945 ft | 447 kts | 241° |
| 2026-04-25 08:45 | 55.18882 | -163.00735 | 35949 ft | 447 kts | 242° |
| 2026-04-25 08:45 | 55.16008 | -163.09250 | 35950 ft | 447 kts | 241° |
| 2026-04-25 08:46 | 55.13176 | -163.17607 | 35946 ft | 446 kts | 242° |
| 2026-04-25 08:46 | 55.10426 | -163.25696 | 35942 ft | 447 kts | 242° |
| 2026-04-25 08:47 | 55.07534 | -163.34172 | 35939 ft | 446 kts | 242° |
| 2026-04-25 08:47 | 55.04635 | -163.42639 | 35943 ft | 445 kts | 242° |
| 2026-04-25 08:48 | 55.01708 | -163.51157 | 35953 ft | 444 kts | 242° |
| 2026-04-25 08:48 | 54.98745 | -163.59750 | 35960 ft | 443 kts | 242° |
| 2026-04-25 08:49 | 54.95797 | -163.68272 | 35957 ft | 443 kts | 241° |
| 2026-04-25 08:49 | 54.92821 | -163.76843 | 35932 ft | 442 kts | 241° |
| 2026-04-25 08:50 | 54.89883 | -163.85275 | 35911 ft | 441 kts | 241° |
| 2026-04-25 08:50 | 54.86931 | -163.93724 | 35883 ft | 441 kts | 241° |
| 2026-04-25 08:51 | 54.83954 | -164.02208 | 35841 ft | 440 kts | 241° |
| 2026-04-25 08:51 | 54.80993 | -164.10620 | 35834 ft | 440 kts | 242° |
| 2026-04-25 08:52 | 54.78020 | -164.19037 | 35858 ft | 439 kts | 242° |
| 2026-04-25 08:52 | 54.75039 | -164.27452 | 35901 ft | 439 kts | 242° |
| 2026-04-25 08:53 | 54.72065 | -164.35812 | 35930 ft | 439 kts | 241° |
| 2026-04-25 08:53 | 54.69095 | -164.44138 | 35940 ft | 438 kts | 242° |
| 2026-04-25 08:54 | 54.66118 | -164.52447 | 35954 ft | 437 kts | 242° |
| 2026-04-25 08:54 | 54.63141 | -164.60736 | 35948 ft | 437 kts | 242° |
| 2026-04-25 08:55 | 54.60151 | -164.69028 | 35939 ft | 436 kts | 241° |
| 2026-04-25 08:55 | 54.57168 | -164.77274 | 35919 ft | 436 kts | 241° |
| 2026-04-25 08:56 | 54.54205 | -164.85442 | 35925 ft | 436 kts | 241° |
| 2026-04-25 08:56 | 54.51233 | -164.93602 | 35949 ft | 434 kts | 241° |
| 2026-04-25 08:57 | 54.48243 | -165.01788 | 35984 ft | 435 kts | 241° |
| 2026-04-25 08:57 | 54.45272 | -165.09895 | 36001 ft | 434 kts | 241° |
| 2026-04-25 08:58 | 54.42295 | -165.17992 | 36005 ft | 434 kts | 241° |
| 2026-04-25 08:58 | 54.39317 | -165.26064 | 36002 ft | 432 kts | 241° |
| 2026-04-25 08:59 | 54.36311 | -165.34189 | 36013 ft | 433 kts | 241° |
| 2026-04-25 08:59 | 54.33415 | -165.41983 | 36007 ft | 431 kts | 241° |
| 2026-04-25 09:00 | 54.30461 | -165.49908 | 36001 ft | 431 kts | 242° |
| 2026-04-25 09:00 | 54.27525 | -165.57768 | 36012 ft | 430 kts | 242° |
| 2026-04-25 09:01 | 54.24574 | -165.65639 | 36011 ft | 430 kts | 241° |
| 2026-04-25 09:01 | 54.21607 | -165.73528 | 36000 ft | 429 kts | 241° |
| 2026-04-25 09:02 | 54.18629 | -165.81424 | 36007 ft | 429 kts | 241° |
| 2026-04-25 09:02 | 54.15653 | -165.89288 | 36009 ft | 428 kts | 241° |
| 2026-04-25 09:03 | 54.12687 | -165.97107 | 36014 ft | 426 kts | 241° |
| 2026-04-25 09:03 | 54.09716 | -166.04904 | 36023 ft | 425 kts | 241° |
| 2026-04-25 09:04 | 54.06761 | -166.12636 | 36020 ft | 425 kts | 241° |
| 2026-04-25 09:04 | 54.03795 | -166.20377 | 36016 ft | 423 kts | 241° |
| 2026-04-25 09:05 | 54.00820 | -166.28119 | 36023 ft | 422 kts | 241° |
| 2026-04-25 09:05 | 53.97816 | -166.35899 | 36030 ft | 422 kts | 241° |
| 2026-04-25 09:06 | 53.94783 | -166.43584 | 36025 ft | 422 kts | 239° |
| 2026-04-25 09:06 | 53.91413 | -166.50830 | 36033 ft | 425 kts | 234° |
| 2026-04-25 09:07 | 53.87635 | -166.57567 | 36030 ft | 429 kts | 230° |
| 2026-04-25 09:07 | 53.83491 | -166.63704 | 36036 ft | 433 kts | 225° |
| 2026-04-25 09:08 | 53.79134 | -166.69313 | 36014 ft | 434 kts | 223° |
| 2026-04-25 09:08 | 53.74780 | -166.74904 | 36013 ft | 434 kts | 224° |
| 2026-04-25 09:09 | 53.70469 | -166.80426 | 36004 ft | 433 kts | 224° |
| 2026-04-25 09:09 | 53.66113 | -166.85983 | 36002 ft | 433 kts | 224° |
| 2026-04-25 09:10 | 53.61696 | -166.91606 | 36000 ft | 432 kts | 224° |
| 2026-04-25 09:10 | 53.57267 | -166.97226 | 35991 ft | 430 kts | 224° |
| 2026-04-25 09:11 | 53.50499 | -167.05782 | 35960 ft | 430 kts | 224° |
| 2026-04-25 09:11 | 53.45959 | -167.11500 | 35968 ft | 431 kts | 224° |
| 2026-04-25 09:12 | 53.41437 | -167.17184 | 35993 ft | 431 kts | 224° |
| 2026-04-25 09:12 | 53.36898 | -167.22871 | 36012 ft | 430 kts | 224° |
| 2026-04-25 09:13 | 53.32350 | -167.28560 | 36013 ft | 429 kts | 224° |
| 2026-04-25 09:13 | 53.27833 | -167.34184 | 36015 ft | 428 kts | 225° |
| 2026-04-25 09:14 | 53.23360 | -167.39746 | 36017 ft | 427 kts | 224° |
| 2026-04-25 09:14 | 53.18851 | -167.45334 | 36010 ft | 427 kts | 225° |
| 2026-04-25 09:15 | 53.14341 | -167.50913 | 36021 ft | 428 kts | 225° |
| 2026-04-25 09:15 | 53.09823 | -167.56486 | 36019 ft | 427 kts | 225° |
| 2026-04-25 09:16 | 53.05306 | -167.62039 | 36027 ft | 426 kts | 225° |
| 2026-04-25 09:16 | 53.00819 | -167.67540 | 36020 ft | 426 kts | 224° |
| 2026-04-25 09:17 | 52.94018 | -167.75859 | 36021 ft | 426 kts | 224° |
| 2026-04-25 09:18 | 52.89531 | -167.81323 | 36026 ft | 426 kts | 224° |
| 2026-04-25 09:18 | 52.84984 | -167.86848 | 36021 ft | 424 kts | 225° |
| 2026-04-25 09:19 | 52.80475 | -167.92313 | 36023 ft | 423 kts | 224° |
| 2026-04-25 09:19 | 52.76024 | -167.97694 | 36020 ft | 423 kts | 225° |
| 2026-04-25 09:20 | 52.71546 | -168.03095 | 36026 ft | 422 kts | 225° |
| 2026-04-25 09:20 | 52.67228 | -168.08285 | 36025 ft | 421 kts | 225° |
| 2026-04-25 09:21 | 52.62938 | -168.13431 | 36025 ft | 420 kts | 225° |
| 2026-04-25 09:21 | 52.58586 | -168.18639 | 36028 ft | 421 kts | 225° |
| 2026-04-25 09:22 | 52.54059 | -168.24045 | 36030 ft | 419 kts | 225° |
| 2026-04-25 09:22 | 52.49625 | -168.29320 | 36024 ft | 419 kts | 225° |
| 2026-04-25 09:23 | 52.45206 | -168.34570 | 36027 ft | 419 kts | 225° |
| 2026-04-25 09:23 | 52.40710 | -168.39894 | 36026 ft | 420 kts | 225° |
| 2026-04-25 09:24 | 52.36244 | -168.45171 | 36023 ft | 417 kts | 225° |
| 2026-04-25 09:24 | 52.31751 | -168.50462 | 36028 ft | 418 kts | 225° |
| 2026-04-25 09:25 | 52.27283 | -168.55719 | 36024 ft | 417 kts | 225° |
| 2026-04-25 09:25 | 52.22806 | -168.60967 | 36019 ft | 415 kts | 225° |
| 2026-04-25 09:26 | 52.18357 | -168.66165 | 36028 ft | 414 kts | 224° |
| 2026-04-25 09:26 | 52.13936 | -168.71324 | 36022 ft | 415 kts | 224° |
| 2026-04-25 09:27 | 52.09457 | -168.76538 | 36021 ft | 413 kts | 224° |
| 2026-04-25 09:27 | 52.05033 | -168.81670 | 36021 ft | 413 kts | 224° |
| 2026-04-25 09:28 | 52.00547 | -168.86865 | 36024 ft | 412 kts | 224° |
| 2026-04-25 09:28 | 51.96064 | -168.92042 | 36020 ft | 412 kts | 224° |
| 2026-04-25 09:29 | 51.91592 | -168.97194 | 36020 ft | 411 kts | 224° |
| 2026-04-25 09:29 | 51.87053 | -169.02412 | 36021 ft | 411 kts | 224° |
| 2026-04-25 09:30 | 51.82407 | -169.07736 | 36023 ft | 409 kts | 224° |
| 2026-04-25 09:30 | 51.77853 | -169.12942 | 36020 ft | 408 kts | 224° |
| 2026-04-25 09:31 | 51.73662 | -169.17722 | 36020 ft | 408 kts | 224° |
| 2026-04-25 09:31 | 51.69452 | -169.22511 | 36022 ft | 406 kts | 225° |
| 2026-04-25 09:32 | 51.64924 | -169.27649 | 36021 ft | 406 kts | 225° |
| 2026-04-25 09:32 | 51.60399 | -169.32776 | 36023 ft | 405 kts | 225° |
| 2026-04-25 09:33 | 51.55934 | -169.37817 | 36021 ft | 404 kts | 225° |
| 2026-04-25 09:33 | 51.51550 | -169.42757 | 36018 ft | 404 kts | 224° |
| 2026-04-25 09:34 | 51.47178 | -169.47673 | 36020 ft | 404 kts | 225° |
| 2026-04-25 09:34 | 51.42781 | -169.52603 | 36018 ft | 404 kts | 225° |
| 2026-04-25 09:35 | 51.38409 | -169.57494 | 36021 ft | 404 kts | 225° |
| 2026-04-25 09:35 | 51.34080 | -169.62326 | 36020 ft | 401 kts | 224° |
| 2026-04-25 09:36 | 51.29671 | -169.67233 | 36016 ft | 402 kts | 224° |
| 2026-04-25 09:36 | 51.25290 | -169.72101 | 36014 ft | 402 kts | 224° |
| 2026-04-25 09:37 | 51.20897 | -169.76970 | 36011 ft | 400 kts | 224° |
| 2026-04-25 09:37 | 51.16584 | -169.81737 | 36010 ft | 400 kts | 224° |
| 2026-04-25 09:38 | 51.12224 | -169.86543 | 36011 ft | 401 kts | 224° |
| 2026-04-25 09:38 | 51.07796 | -169.91415 | 36014 ft | 399 kts | 224° |
| 2026-04-25 09:39 | 51.03445 | -169.96190 | 35743 ft | 400 kts | 225° |
| 2026-04-25 09:39 | 51.01270 | -169.98584 | 36043 ft | 399 kts | 225° |
| 2026-04-25 09:39 | 50.99225 | -170.00972 | 36025 ft | 396 kts | 227° |
| 2026-04-25 09:40 | 50.95174 | -170.06093 | 35750 ft | 394 kts | 227° |
| 2026-04-25 09:40 | 50.93144 | -170.08644 | 35910 ft | 394 kts | 227° |
| 2026-04-25 09:40 | 50.89061 | -170.13768 | 36000 ft | 395 kts | 227° |
| 2026-04-25 09:41 | 50.84787 | -170.19119 | 36010 ft | 396 kts | 227° |
| 2026-04-25 09:41 | 50.80829 | -170.24072 | 36014 ft | 395 kts | 228° |
| 2026-04-25 09:42 | 50.76654 | -170.29286 | 36021 ft | 394 kts | 227° |
| 2026-04-25 09:42 | 50.72467 | -170.34497 | 36012 ft | 393 kts | 228° |
| 2026-04-25 09:43 | 50.68252 | -170.39741 | 36017 ft | 394 kts | 227° |
| 2026-04-25 09:43 | 50.64150 | -170.44826 | 36019 ft | 393 kts | 228° |
| 2026-04-25 09:44 | 50.60049 | -170.49902 | 36003 ft | 393 kts | 227° |
| 2026-04-25 09:44 | 50.55951 | -170.54961 | 36011 ft | 391 kts | 228° |
| 2026-04-25 09:45 | 50.51846 | -170.60019 | 36001 ft | 390 kts | 227° |
| 2026-04-25 09:45 | 50.47787 | -170.65006 | 35991 ft | 391 kts | 227° |
| 2026-04-25 09:46 | 50.43615 | -170.70123 | 36008 ft | 389 kts | 227° |
| 2026-04-25 09:46 | 50.39488 | -170.75171 | 35999 ft | 388 kts | 227° |
| 2026-04-25 09:47 | 50.35379 | -170.80190 | 36002 ft | 388 kts | 227° |
| 2026-04-25 09:47 | 50.31256 | -170.85210 | 35988 ft | 386 kts | 227° |
| 2026-04-25 09:48 | 50.27277 | -170.90045 | 35994 ft | 387 kts | 227° |
| 2026-04-25 09:48 | 50.23440 | -170.94701 | 35992 ft | 387 kts | 228° |
| 2026-04-25 09:49 | 50.19626 | -170.99315 | 36000 ft | 385 kts | 227° |
| 2026-04-25 09:49 | 50.15652 | -171.04112 | 35981 ft | 383 kts | 228° |
| 2026-04-25 09:50 | 50.11721 | -171.08849 | 35976 ft | 384 kts | 227° |
| 2026-04-25 09:50 | 50.07703 | -171.13681 | 35973 ft | 384 kts | 227° |
| 2026-04-25 09:51 | 50.03678 | -171.18509 | 35966 ft | 383 kts | 228° |
| 2026-04-25 09:51 | 49.99820 | -171.23129 | 35953 ft | 381 kts | 228° |
| 2026-04-25 09:52 | 49.95953 | -171.27747 | 35962 ft | 382 kts | 228° |
| 2026-04-25 09:52 | 49.92121 | -171.32320 | 35963 ft | 381 kts | 228° |
| 2026-04-25 09:53 | 49.88298 | -171.36870 | 35960 ft | 380 kts | 228° |
| 2026-04-25 09:53 | 49.84460 | -171.41429 | 35955 ft | 379 kts | 228° |
| 2026-04-25 09:54 | 49.80667 | -171.45920 | 35957 ft | 380 kts | 227° |
| 2026-04-25 09:54 | 49.76849 | -171.50430 | 35959 ft | 377 kts | 228° |
| 2026-04-25 09:55 | 49.72838 | -171.55168 | 35967 ft | 377 kts | 228° |
| 2026-04-25 09:55 | 49.68682 | -171.60063 | 35963 ft | 377 kts | 227° |
| 2026-04-25 09:56 | 49.64524 | -171.64946 | 35962 ft | 377 kts | 228° |
| 2026-04-25 09:56 | 49.60707 | -171.69420 | 35960 ft | 378 kts | 227° |
| 2026-04-25 09:57 | 49.56951 | -171.73810 | 35954 ft | 376 kts | 228° |
| 2026-04-25 09:57 | 49.53183 | -171.78210 | 35948 ft | 376 kts | 227° |
| 2026-04-25 09:58 | 49.49456 | -171.82564 | 35951 ft | 374 kts | 227° |
| 2026-04-25 09:58 | 49.45755 | -171.86859 | 35945 ft | 374 kts | 227° |
| 2026-04-25 09:59 | 49.42034 | -171.91180 | 35938 ft | 373 kts | 228° |
| 2026-04-25 09:59 | 49.38274 | -171.95546 | 35935 ft | 371 kts | 227° |
| 2026-04-25 10:00 | 49.34435 | -171.99980 | 35936 ft | 370 kts | 227° |
| 2026-04-25 10:00 | 49.30522 | -172.04488 | 35935 ft | 372 kts | 229° |
| 2026-04-25 10:01 | 49.26293 | -172.09370 | 35924 ft | 370 kts | 228° |
| 2026-04-25 10:01 | 49.22084 | -172.14206 | 35928 ft | 371 kts | 228° |
| 2026-04-25 10:02 | 49.18255 | -172.18593 | 35928 ft | 370 kts | 229° |
| 2026-04-25 10:02 | 49.14496 | -172.22891 | 35927 ft | 369 kts | 229° |
| 2026-04-25 10:03 | 49.10831 | -172.27078 | 35915 ft | 369 kts | 229° |
| 2026-04-25 10:03 | 49.07163 | -172.31267 | 35909 ft | 368 kts | 229° |
| 2026-04-25 10:04 | 49.03496 | -172.35437 | 35910 ft | 369 kts | 229° |
| 2026-04-25 10:04 | 48.99853 | -172.39577 | 35908 ft | 365 kts | 227° |
| 2026-04-25 10:05 | 48.96196 | -172.43720 | 35904 ft | 366 kts | 229° |
| 2026-04-25 10:05 | 48.92435 | -172.47972 | 35901 ft | 367 kts | 229° |
| 2026-04-25 10:06 | 48.88743 | -172.52148 | 35903 ft | 367 kts | 228° |
| 2026-04-25 10:06 | 48.84924 | -172.56450 | 35897 ft | 367 kts | 229° |
| 2026-04-25 10:07 | 48.81173 | -172.60677 | 35884 ft | 368 kts | 227° |
| 2026-04-25 10:07 | 48.77440 | -172.64864 | 35867 ft | 365 kts | 227° |
| 2026-04-25 10:08 | 48.73665 | -172.69096 | 35877 ft | 366 kts | 227° |
| 2026-04-25 10:08 | 48.69880 | -172.73334 | 35878 ft | 369 kts | 227° |
| 2026-04-25 10:09 | 48.66089 | -172.77568 | 35873 ft | 365 kts | 227° |
| 2026-04-25 10:09 | 48.62270 | -172.81816 | 35868 ft | 366 kts | 228° |
| 2026-04-25 10:10 | 48.58412 | -172.86104 | 35867 ft | 365 kts | 227° |
| 2026-04-25 10:10 | 48.54602 | -172.90340 | 35862 ft | 365 kts | 228° |
| 2026-04-25 10:11 | 48.50716 | -172.94643 | 35860 ft | 367 kts | 228° |
| 2026-04-25 10:11 | 48.46972 | -172.98781 | 35855 ft | 367 kts | 228° |
| 2026-04-25 10:12 | 48.43108 | -173.03052 | 35852 ft | 364 kts | 227° |
| 2026-04-25 10:13 | 48.37602 | -173.09105 | 35840 ft | 365 kts | 228° |
| 2026-04-25 10:13 | 48.33879 | -173.13200 | 35835 ft | 366 kts | 227° |
| 2026-04-25 10:14 | 48.30233 | -173.17198 | 35841 ft | 366 kts | 227° |
| 2026-04-25 10:14 | 48.28313 | -173.19302 | 36013 ft | 365 kts | 228° |
| 2026-04-25 10:14 | 48.26442 | -173.21344 | 35882 ft | 363 kts | 228° |
| 2026-04-25 10:14 | 48.24626 | -173.23331 | 35592 ft | 363 kts | 228° |
| 2026-04-25 10:15 | 48.22822 | -173.25305 | 35717 ft | 362 kts | 227° |
| 2026-04-25 10:15 | 48.19131 | -173.29332 | 35811 ft | 364 kts | 227° |
| 2026-04-25 10:16 | 48.15520 | -173.33258 | 35796 ft | 362 kts | 227° |
| 2026-04-25 10:16 | 48.13685 | -173.35260 | 36080 ft | 361 kts | 227° |
| 2026-04-25 10:16 | 48.11845 | -173.37251 | 35915 ft | 362 kts | 228° |
| 2026-04-25 10:17 | 48.08151 | -173.41266 | 35832 ft | 360 kts | 227° |
| 2026-04-25 10:17 | 48.04431 | -173.45288 | 35806 ft | 362 kts | 228° |
| 2026-04-25 10:18 | 48.00829 | -173.49176 | 35810 ft | 362 kts | 227° |
| 2026-04-25 10:18 | 47.97251 | -173.53046 | 35798 ft | 363 kts | 227° |
| 2026-04-25 10:19 | 47.93670 | -173.56909 | 35792 ft | 361 kts | 227° |
| 2026-04-25 10:19 | 47.90085 | -173.60759 | 35791 ft | 360 kts | 227° |
| 2026-04-25 10:20 | 47.86402 | -173.64710 | 35791 ft | 361 kts | 228° |
| 2026-04-25 10:20 | 47.82772 | -173.68593 | 35786 ft | 363 kts | 227° |
| 2026-04-25 10:21 | 47.79138 | -173.72485 | 35777 ft | 362 kts | 227° |
| 2026-04-25 10:21 | 47.75467 | -173.76407 | 35765 ft | 361 kts | 227° |
| 2026-04-25 10:22 | 47.71707 | -173.80405 | 35769 ft | 364 kts | 226° |
| 2026-04-25 10:22 | 47.68009 | -173.84340 | 35768 ft | 362 kts | 227° |
| 2026-04-25 10:23 | 47.64370 | -173.88208 | 35759 ft | 362 kts | 226° |
| 2026-04-25 10:23 | 47.60612 | -173.92200 | 35746 ft | 361 kts | 226° |
| 2026-04-25 10:24 | 47.56875 | -173.96143 | 35733 ft | 360 kts | 226° |
| 2026-04-25 10:24 | 47.53108 | -174.00124 | 35732 ft | 361 kts | 227° |
| 2026-04-25 10:25 | 47.49499 | -174.03929 | 35730 ft | 362 kts | 226° |
| 2026-04-25 10:25 | 47.45786 | -174.07838 | 35731 ft | 360 kts | 225° |
| 2026-04-25 10:26 | 47.42155 | -174.11642 | 35732 ft | 360 kts | 226° |
| 2026-04-25 10:26 | 47.38496 | -174.15479 | 35728 ft | 362 kts | 226° |
| 2026-04-25 10:27 | 47.34784 | -174.19374 | 35723 ft | 362 kts | 226° |
| 2026-04-25 10:27 | 47.31114 | -174.23204 | 35721 ft | 362 kts | 226° |
| 2026-04-25 10:28 | 47.27437 | -174.27048 | 35720 ft | 361 kts | 225° |
| 2026-04-25 10:28 | 47.23870 | -174.30763 | 35718 ft | 361 kts | 226° |
| 2026-04-25 10:29 | 47.20296 | -174.34482 | 35712 ft | 361 kts | 227° |
| 2026-04-25 10:29 | 47.16687 | -174.38228 | 35712 ft | 360 kts | 225° |
| 2026-04-25 10:30 | 47.12954 | -174.42094 | 35708 ft | 360 kts | 227° |
| 2026-04-25 10:30 | 47.09220 | -174.45956 | 35707 ft | 361 kts | 226° |
| 2026-04-25 10:31 | 47.05436 | -174.49863 | 35703 ft | 362 kts | 226° |
| 2026-04-25 10:31 | 47.01686 | -174.53738 | 35704 ft | 361 kts | 226° |
| 2026-04-25 10:32 | 46.97928 | -174.57591 | 35703 ft | 363 kts | 226° |
| 2026-04-25 10:32 | 46.94097 | -174.61536 | 35697 ft | 362 kts | 226° |
| 2026-04-25 10:33 | 46.90250 | -174.65483 | 35690 ft | 362 kts | 225° |
| 2026-04-25 10:33 | 46.86402 | -174.69412 | 35686 ft | 362 kts | 225° |
| 2026-04-25 10:34 | 46.82620 | -174.73271 | 35681 ft | 363 kts | 224° |
| 2026-04-25 10:34 | 46.78848 | -174.77119 | 35682 ft | 365 kts | 225° |
| 2026-04-25 10:35 | 46.75141 | -174.80913 | 35679 ft | 365 kts | 225° |
| 2026-04-25 10:35 | 46.71294 | -174.84810 | 35673 ft | 364 kts | 225° |
| 2026-04-25 10:36 | 46.67480 | -174.88676 | 35680 ft | 365 kts | 225° |
| 2026-04-25 10:36 | 46.63548 | -174.92659 | 35669 ft | 366 kts | 225° |
| 2026-04-25 10:37 | 46.59758 | -174.96498 | 35674 ft | 363 kts | 225° |
| 2026-04-25 10:37 | 46.56015 | -175.00279 | 35673 ft | 365 kts | 224° |
| 2026-04-25 10:38 | 46.52293 | -175.04019 | 35666 ft | 366 kts | 224° |
| 2026-04-25 10:38 | 46.48497 | -175.07848 | 35672 ft | 365 kts | 225° |
| 2026-04-25 10:39 | 46.44657 | -175.11694 | 35671 ft | 366 kts | 224° |
| 2026-04-25 10:39 | 46.40825 | -175.15544 | 35663 ft | 365 kts | 224° |
| 2026-04-25 10:40 | 46.36911 | -175.19444 | 35662 ft | 367 kts | 225° |
| 2026-04-25 10:40 | 46.33075 | -175.23282 | 35659 ft | 367 kts | 225° |
| 2026-04-25 10:41 | 46.29201 | -175.27144 | 35653 ft | 367 kts | 224° |
| 2026-04-25 10:41 | 46.25394 | -175.30930 | 35646 ft | 368 kts | 225° |
| 2026-04-25 10:42 | 46.21453 | -175.34853 | 35639 ft | 369 kts | 224° |
| 2026-04-25 10:42 | 46.17605 | -175.38672 | 35636 ft | 368 kts | 224° |
| 2026-04-25 10:43 | 46.13815 | -175.42415 | 35635 ft | 370 kts | 225° |
| 2026-04-25 10:43 | 46.10041 | -175.46150 | 35630 ft | 369 kts | 224° |
| 2026-04-25 10:44 | 46.06286 | -175.49849 | 35631 ft | 368 kts | 224° |
| 2026-04-25 10:44 | 46.02479 | -175.53607 | 35627 ft | 368 kts | 224° |
| 2026-04-25 10:45 | 45.98671 | -175.57347 | 35629 ft | 369 kts | 225° |
| 2026-04-25 10:45 | 45.94928 | -175.61035 | 35633 ft | 366 kts | 223° |
| 2026-04-25 10:46 | 45.91137 | -175.64746 | 35625 ft | 367 kts | 224° |
| 2026-04-25 10:46 | 45.87216 | -175.68574 | 35632 ft | 370 kts | 224° |
| 2026-04-25 10:47 | 45.83312 | -175.72392 | 35619 ft | 368 kts | 223° |
| 2026-04-25 10:47 | 45.79319 | -175.76288 | 35622 ft | 369 kts | 224° |
| 2026-04-25 10:48 | 45.75424 | -175.80078 | 35630 ft | 370 kts | 223° |
| 2026-04-25 10:48 | 45.71467 | -175.83926 | 35623 ft | 371 kts | 223° |
| 2026-04-25 10:49 | 45.67583 | -175.87694 | 35624 ft | 370 kts | 224° |
| 2026-04-25 10:49 | 45.63623 | -175.91522 | 35623 ft | 371 kts | 224° |
| 2026-04-25 10:50 | 45.59627 | -175.95390 | 35622 ft | 371 kts | 224° |
| 2026-04-25 10:50 | 45.55727 | -175.99153 | 35630 ft | 369 kts | 224° |
| 2026-04-25 10:51 | 45.51813 | -176.02925 | 35630 ft | 368 kts | 223° |
| 2026-04-25 10:51 | 45.47919 | -176.06674 | 35625 ft | 368 kts | 223° |
| 2026-04-25 10:52 | 45.43943 | -176.10481 | 35624 ft | 369 kts | 224° |
| 2026-04-25 10:52 | 45.40065 | -176.14203 | 35630 ft | 370 kts | 223° |
| 2026-04-25 10:53 | 45.36298 | -176.17804 | 35627 ft | 368 kts | 223° |
| 2026-04-25 10:53 | 45.32524 | -176.21413 | 35624 ft | 367 kts | 223° |
| 2026-04-25 10:54 | 45.28718 | -176.25038 | 35633 ft | 366 kts | 224° |
| 2026-04-25 10:54 | 45.24968 | -176.28615 | 35632 ft | 368 kts | 223° |
| 2026-04-25 10:55 | 45.21081 | -176.32306 | 35629 ft | 369 kts | 222° |
| 2026-04-25 10:55 | 45.17226 | -176.35968 | 35623 ft | 368 kts | 223° |
| 2026-04-25 10:56 | 45.13361 | -176.39627 | 35628 ft | 369 kts | 224° |
| 2026-04-25 10:56 | 45.09431 | -176.43349 | 35625 ft | 367 kts | 222° |
| 2026-04-25 10:57 | 45.05496 | -176.47057 | 35615 ft | 367 kts | 223° |
| 2026-04-25 10:57 | 45.01546 | -176.50783 | 35625 ft | 369 kts | 223° |
| 2026-04-25 10:58 | 44.97620 | -176.54483 | 35621 ft | 369 kts | 222° |
| 2026-04-25 10:58 | 44.93689 | -176.58173 | 35617 ft | 369 kts | 223° |
| 2026-04-25 10:59 | 44.89774 | -176.61842 | 35632 ft | 369 kts | 223° |
| 2026-04-25 10:59 | 44.85760 | -176.65601 | 35630 ft | 370 kts | 222° |
| 2026-04-25 11:00 | 44.81799 | -176.69304 | 35626 ft | 371 kts | 222° |
| 2026-04-25 11:00 | 44.77792 | -176.73044 | 35621 ft | 370 kts | 223° |
| 2026-04-25 11:01 | 44.73821 | -176.76746 | 35620 ft | 370 kts | 221° |
| 2026-04-25 11:01 | 44.69847 | -176.80443 | 35620 ft | 368 kts | 222° |
| 2026-04-25 11:02 | 44.65855 | -176.84149 | 35625 ft | 372 kts | 223° |
| 2026-04-25 11:02 | 44.61962 | -176.87767 | 35619 ft | 370 kts | 221° |
| 2026-04-25 11:03 | 44.57993 | -176.91435 | 35620 ft | 371 kts | 223° |
| 2026-04-25 11:03 | 44.54080 | -176.95042 | 35623 ft | 373 kts | 222° |
| 2026-04-25 11:04 | 44.50041 | -176.98767 | 35633 ft | 373 kts | 222° |
| 2026-04-25 11:04 | 44.46042 | -177.02452 | 35620 ft | 372 kts | 222° |
| 2026-04-25 11:05 | 44.42063 | -177.06117 | 35630 ft | 371 kts | 221° |
| 2026-04-25 11:05 | 44.38117 | -177.09737 | 35644 ft | 373 kts | 221° |
| 2026-04-25 11:06 | 44.34119 | -177.13396 | 35634 ft | 373 kts | 222° |
| 2026-04-25 11:06 | 44.30172 | -177.17004 | 35632 ft | 372 kts | 221° |
| 2026-04-25 11:07 | 44.26141 | -177.20689 | 35638 ft | 372 kts | 221° |
| 2026-04-25 11:07 | 44.22143 | -177.24329 | 35632 ft | 373 kts | 222° |
| 2026-04-25 11:08 | 44.18124 | -177.27991 | 35635 ft | 374 kts | 222° |
| 2026-04-25 11:08 | 44.14052 | -177.31689 | 35629 ft | 375 kts | 222° |
| 2026-04-25 11:09 | 44.09986 | -177.35384 | 35629 ft | 374 kts | 222° |
| 2026-04-25 11:09 | 44.05871 | -177.39111 | 35627 ft | 376 kts | 221° |
| 2026-04-25 11:10 | 44.01815 | -177.42784 | 35625 ft | 375 kts | 222° |
| 2026-04-25 11:10 | 43.97713 | -177.46490 | 35623 ft | 375 kts | 222° |
| 2026-04-25 11:11 | 43.93625 | -177.50174 | 35633 ft | 374 kts | 222° |
| 2026-04-25 11:11 | 43.89534 | -177.53848 | 35632 ft | 376 kts | 221° |
| 2026-04-25 11:12 | 43.85354 | -177.57596 | 35635 ft | 376 kts | 221° |
| 2026-04-25 11:12 | 43.81216 | -177.61311 | 35641 ft | 375 kts | 221° |
| 2026-04-25 11:13 | 43.77095 | -177.65004 | 35642 ft | 374 kts | 221° |
| 2026-04-25 11:13 | 43.72875 | -177.68767 | 35648 ft | 376 kts | 221° |
| 2026-04-25 11:14 | 43.68742 | -177.72456 | 35643 ft | 379 kts | 220° |
| 2026-04-25 11:14 | 43.64507 | -177.76230 | 35643 ft | 379 kts | 221° |
| 2026-04-25 11:15 | 43.60332 | -177.79945 | 35649 ft | 378 kts | 221° |
| 2026-04-25 11:15 | 43.56108 | -177.83693 | 35645 ft | 379 kts | 221° |
| 2026-04-25 11:16 | 43.49945 | -177.89154 | 35644 ft | 380 kts | 221° |
| 2026-04-25 11:16 | 43.45773 | -177.92847 | 35643 ft | 378 kts | 221° |
| 2026-04-25 11:17 | 43.41633 | -177.96492 | 35649 ft | 379 kts | 221° |
| 2026-04-25 11:17 | 43.37423 | -178.00205 | 35642 ft | 379 kts | 220° |
| 2026-04-25 11:18 | 43.33279 | -178.03845 | 35645 ft | 378 kts | 220° |
| 2026-04-25 11:18 | 43.29116 | -178.07506 | 35649 ft | 378 kts | 221° |
| 2026-04-25 11:19 | 43.24969 | -178.11140 | 35650 ft | 379 kts | 220° |
| 2026-04-25 11:19 | 43.20751 | -178.14831 | 35642 ft | 379 kts | 220° |
| 2026-04-25 11:20 | 43.16582 | -178.18478 | 35654 ft | 379 kts | 220° |
| 2026-04-25 11:20 | 43.12408 | -178.22118 | 35651 ft | 379 kts | 220° |
| 2026-04-25 11:21 | 43.08312 | -178.25679 | 35655 ft | 381 kts | 220° |
| 2026-04-25 11:21 | 43.04165 | -178.29289 | 35656 ft | 382 kts | 220° |
| 2026-04-25 11:22 | 43.00641 | -178.32352 | 35659 ft | 382 kts | 220° |
| 2026-04-25 11:22 | 42.95821 | -178.36528 | 35661 ft | 381 kts | 220° |
| 2026-04-25 11:23 | 42.91675 | -178.40117 | 35655 ft | 380 kts | 220° |
| 2026-04-25 11:23 | 42.87505 | -178.43720 | 35672 ft | 381 kts | 220° |
| 2026-04-25 11:24 | 42.83297 | -178.47347 | 35673 ft | 381 kts | 220° |
| 2026-04-25 11:24 | 42.79096 | -178.50966 | 35676 ft | 380 kts | 220° |
| 2026-04-25 11:25 | 42.74903 | -178.54575 | 35672 ft | 380 kts | 220° |
| 2026-04-25 11:25 | 42.70786 | -178.58104 | 35671 ft | 382 kts | 220° |
| 2026-04-25 11:26 | 42.66614 | -178.61682 | 35672 ft | 380 kts | 220° |
| 2026-04-25 11:26 | 42.62467 | -178.65231 | 35675 ft | 380 kts | 219° |
| 2026-04-25 11:27 | 42.58198 | -178.68875 | 35674 ft | 382 kts | 219° |
| 2026-04-25 11:27 | 42.54568 | -178.71974 | 35687 ft | 384 kts | 219° |
| 2026-04-25 11:28 | 42.49498 | -178.76294 | 35683 ft | 383 kts | 219° |
| 2026-04-25 11:28 | 42.45284 | -178.79875 | 35680 ft | 381 kts | 219° |
| 2026-04-25 11:29 | 42.40974 | -178.83528 | 35685 ft | 384 kts | 219° |
| 2026-04-25 11:29 | 42.36875 | -178.87007 | 35687 ft | 384 kts | 219° |
| 2026-04-25 11:30 | 42.32816 | -178.90437 | 35692 ft | 384 kts | 219° |
| 2026-04-25 11:30 | 42.28740 | -178.93878 | 35691 ft | 384 kts | 219° |
| 2026-04-25 11:31 | 42.24575 | -178.97395 | 35697 ft | 384 kts | 219° |
| 2026-04-25 11:31 | 42.20285 | -179.01003 | 35694 ft | 384 kts | 219° |
| 2026-04-25 11:32 | 42.16077 | -179.04541 | 35699 ft | 384 kts | 219° |
| 2026-04-25 11:32 | 42.11867 | -179.08077 | 35707 ft | 384 kts | 219° |
| 2026-04-25 11:33 | 42.07595 | -179.11658 | 35712 ft | 384 kts | 218° |
| 2026-04-25 11:33 | 42.03335 | -179.15218 | 35712 ft | 386 kts | 219° |
| 2026-04-25 11:34 | 41.99142 | -179.18718 | 35714 ft | 386 kts | 218° |
| 2026-04-25 11:34 | 41.94873 | -179.22278 | 35721 ft | 386 kts | 219° |
| 2026-04-25 11:35 | 41.90622 | -179.25819 | 35705 ft | 386 kts | 218° |
| 2026-04-25 11:35 | 41.86286 | -179.29423 | 35716 ft | 386 kts | 218° |
| 2026-04-25 11:36 | 41.81988 | -179.32988 | 35718 ft | 387 kts | 219° |
| 2026-04-25 11:36 | 41.77668 | -179.36572 | 35715 ft | 385 kts | 219° |
| 2026-04-25 11:37 | 41.73360 | -179.40140 | 35722 ft | 386 kts | 218° |
| 2026-04-25 11:37 | 41.69051 | -179.43698 | 35723 ft | 385 kts | 219° |
| 2026-04-25 11:38 | 41.64732 | -179.47257 | 35719 ft | 384 kts | 219° |
| 2026-04-25 11:38 | 41.60468 | -179.50764 | 35726 ft | 386 kts | 218° |
| 2026-04-25 11:39 | 41.56136 | -179.54327 | 35725 ft | 386 kts | 218° |
| 2026-04-25 11:39 | 41.51826 | -179.57861 | 35732 ft | 386 kts | 218° |
| 2026-04-25 11:40 | 41.47470 | -179.61435 | 35726 ft | 385 kts | 218° |
| 2026-04-25 11:40 | 41.43294 | -179.64845 | 35737 ft | 386 kts | 218° |
| 2026-04-25 11:41 | 41.39053 | -179.68315 | 35741 ft | 386 kts | 218° |
| 2026-04-25 11:41 | 41.34890 | -179.71709 | 35742 ft | 387 kts | 218° |
| 2026-04-25 11:42 | 41.30615 | -179.75192 | 35740 ft | 387 kts | 218° |
| 2026-04-25 11:42 | 41.26407 | -179.78615 | 35734 ft | 384 kts | 218° |
| 2026-04-25 11:43 | 41.22075 | -179.82127 | 35744 ft | 387 kts | 218° |
| 2026-04-25 11:43 | 41.17794 | -179.85603 | 35732 ft | 384 kts | 218° |
| 2026-04-25 11:44 | 41.13503 | -179.89072 | 35734 ft | 384 kts | 218° |
| 2026-04-25 11:44 | 41.09181 | -179.92561 | 35740 ft | 384 kts | 218° |
| 2026-04-25 11:45 | 41.04761 | -179.95625 | 35734 ft | 389 kts | 211° |
| 2026-04-25 11:45 | 40.99935 | -179.97948 | 35746 ft | 398 kts | 205° |
| 2026-04-25 11:46 | 40.94894 | -179.99397 | 35748 ft | 406 kts | 198° |
| 2026-04-25 11:46 | 40.89518 | -179.99933 | 35755 ft | 420 kts | 191° |
| 2026-04-25 11:47 | 40.84063 | -179.99962 | 35765 ft | 420 kts | 191° |
| 2026-04-25 11:47 | 40.78463 | -179.99976 | 35786 ft | 421 kts | 191° |
| 2026-04-25 11:48 | 40.72900 | -179.99971 | 35777 ft | 422 kts | 191° |
| 2026-04-25 11:48 | 40.67325 | -179.99971 | 35776 ft | 422 kts | 191° |
| 2026-04-25 11:49 | 40.61837 | -179.99974 | 35782 ft | 425 kts | 191° |
| 2026-04-25 11:49 | 40.56133 | -179.99979 | 35781 ft | 426 kts | 191° |
| 2026-04-25 11:50 | 40.50557 | -179.99977 | 35797 ft | 427 kts | 191° |
| 2026-04-25 11:50 | 40.44906 | -179.99979 | 35802 ft | 429 kts | 191° |
| 2026-04-25 11:51 | 40.39288 | -179.99976 | 35823 ft | 430 kts | 190° |
| 2026-04-25 11:51 | 40.33521 | -179.99970 | 35834 ft | 429 kts | 190° |
| 2026-04-25 11:52 | 40.27838 | -179.99980 | 35827 ft | 431 kts | 190° |
| 2026-04-25 11:52 | 40.22139 | -179.99973 | 35822 ft | 431 kts | 191° |
| 2026-04-25 11:53 | 40.16457 | -179.99977 | 35830 ft | 433 kts | 191° |
| 2026-04-25 11:53 | 40.10703 | -179.99980 | 35828 ft | 432 kts | 190° |
| 2026-04-25 11:54 | 40.04984 | -179.99979 | 35827 ft | 432 kts | 190° |
| 2026-04-25 11:55 | 39.96478 | -179.99960 | 35844 ft | 432 kts | 189° |
| 2026-04-25 11:55 | 39.90951 | -179.99968 | 35847 ft | 433 kts | 189° |
| 2026-04-25 11:56 | 39.85289 | -179.99971 | 35858 ft | 434 kts | 190° |
| 2026-04-25 11:56 | 39.79456 | -179.99971 | 35850 ft | 434 kts | 189° |
| 2026-04-25 11:57 | 39.73726 | -179.99973 | 35851 ft | 435 kts | 189° |
| 2026-04-25 11:57 | 39.68089 | -179.99977 | 35852 ft | 435 kts | 189° |
| 2026-04-25 11:58 | 39.62337 | -179.99976 | 35863 ft | 437 kts | 189° |
| 2026-04-25 11:58 | 39.56657 | -179.99976 | 35880 ft | 436 kts | 189° |
| 2026-04-25 11:59 | 39.50980 | -179.99979 | 35881 ft | 437 kts | 189° |
| 2026-04-25 11:59 | 39.45293 | -179.99977 | 35892 ft | 438 kts | 189° |
| 2026-04-25 12:00 | 39.36641 | -179.99976 | 35889 ft | 440 kts | 189° |
| 2026-04-25 12:01 | 39.27918 | -179.99976 | 35900 ft | 441 kts | 189° |
| 2026-04-25 12:01 | 39.22115 | -179.99976 | 35901 ft | 441 kts | 189° |
| 2026-04-25 12:02 | 39.13830 | -179.99979 | 35894 ft | 440 kts | 189° |
| 2026-04-25 12:02 | 39.08348 | -179.99977 | 35903 ft | 442 kts | 189° |
| 2026-04-25 12:03 | 39.02732 | -179.99982 | 35912 ft | 441 kts | 189° |
| 2026-04-25 12:03 | 38.97021 | -179.99963 | 35926 ft | 441 kts | 189° |
| 2026-04-25 12:04 | 38.91357 | -179.99971 | 35939 ft | 440 kts | 189° |
| 2026-04-25 12:04 | 38.85450 | -179.99971 | 35937 ft | 441 kts | 188° |
| 2026-04-25 12:05 | 38.79628 | -179.99973 | 35943 ft | 443 kts | 188° |
| 2026-04-25 12:05 | 38.73839 | -179.99973 | 35953 ft | 442 kts | 188° |
| 2026-04-25 12:06 | 38.68010 | -179.99977 | 35942 ft | 443 kts | 188° |
| 2026-04-25 12:06 | 38.62202 | -179.99980 | 35947 ft | 442 kts | 188° |
| 2026-04-25 12:07 | 38.56500 | -179.99979 | 35953 ft | 442 kts | 188° |
| 2026-04-25 12:07 | 38.50683 | -179.99977 | 35952 ft | 444 kts | 188° |
| 2026-04-25 12:08 | 38.45038 | -179.99976 | 35956 ft | 445 kts | 188° |
| 2026-04-25 12:08 | 38.39349 | -179.99977 | 35959 ft | 445 kts | 188° |
| 2026-04-25 12:09 | 38.33653 | -179.99979 | 35976 ft | 446 kts | 188° |
| 2026-04-25 12:09 | 38.27974 | -179.99980 | 35974 ft | 445 kts | 188° |
| 2026-04-25 12:10 | 38.22333 | -179.99982 | 35977 ft | 444 kts | 188° |
| 2026-04-25 12:10 | 38.16631 | -179.99980 | 35980 ft | 446 kts | 188° |
| 2026-04-25 12:11 | 38.10894 | -179.99979 | 35978 ft | 446 kts | 188° |
| 2026-04-25 12:11 | 38.05181 | -179.99980 | 35984 ft | 448 kts | 188° |
| 2026-04-25 12:12 | 37.99415 | -179.99986 | 35989 ft | 448 kts | 187° |
| 2026-04-25 12:12 | 37.93648 | -179.99965 | 35992 ft | 447 kts | 188° |
| 2026-04-25 12:13 | 37.87929 | -179.99980 | 36000 ft | 447 kts | 187° |
| 2026-04-25 12:13 | 37.82161 | -179.99979 | 36004 ft | 448 kts | 188° |
| 2026-04-25 12:14 | 37.76237 | -179.99974 | 36005 ft | 447 kts | 188° |
| 2026-04-25 12:14 | 37.70491 | -179.99974 | 35999 ft | 448 kts | 188° |
| 2026-04-25 12:15 | 37.64814 | -179.99977 | 35997 ft | 448 kts | 187° |
| 2026-04-25 12:15 | 37.58972 | -179.99980 | 36004 ft | 448 kts | 187° |
| 2026-04-25 12:16 | 37.52717 | -179.99980 | 36006 ft | 450 kts | 187° |
| 2026-04-25 12:16 | 37.46606 | -179.99982 | 36009 ft | 450 kts | 187° |
| 2026-04-25 12:17 | 37.40395 | -179.99980 | 36013 ft | 450 kts | 187° |
| 2026-04-25 12:17 | 37.34497 | -179.99982 | 36015 ft | 451 kts | 187° |
| 2026-04-25 12:18 | 37.28554 | -179.99980 | 36016 ft | 451 kts | 187° |
| 2026-04-25 12:18 | 37.22585 | -179.99982 | 36017 ft | 451 kts | 187° |
| 2026-04-25 12:19 | 37.13532 | -179.99979 | 36029 ft | 451 kts | 187° |
| 2026-04-25 12:20 | 37.07623 | -179.99982 | 36027 ft | 452 kts | 187° |
| 2026-04-25 12:20 | 37.01716 | -179.99983 | 36031 ft | 452 kts | 187° |
| 2026-04-25 12:21 | 36.95573 | -179.99966 | 36036 ft | 453 kts | 187° |
| 2026-04-25 12:21 | 36.89632 | -179.99982 | 36197 ft | 455 kts | 187° |
| 2026-04-25 12:21 | 36.86503 | -179.99971 | 36451 ft | 454 kts | 187° |
| 2026-04-25 12:22 | 36.83345 | -179.99976 | 36711 ft | 454 kts | 187° |
| 2026-04-25 12:22 | 36.80208 | -179.99979 | 36926 ft | 454 kts | 187° |
| 2026-04-25 12:22 | 36.77129 | -179.99974 | 37135 ft | 454 kts | 187° |
| 2026-04-25 12:22 | 36.74133 | -179.99982 | 37324 ft | 454 kts | 187° |
| 2026-04-25 12:23 | 36.71144 | -179.99973 | 37509 ft | 454 kts | 187° |
| 2026-04-25 12:23 | 36.68062 | -179.99976 | 37713 ft | 454 kts | 187° |
| 2026-04-25 12:23 | 36.65046 | -179.99980 | 37867 ft | 455 kts | 187° |
| 2026-04-25 12:23 | 36.61897 | -179.99974 | 38053 ft | 455 kts | 187° |
| 2026-04-25 12:24 | 36.58806 | -179.99982 | 38056 ft | 455 kts | 187° |
| 2026-04-25 12:24 | 36.53003 | -179.99979 | 38055 ft | 454 kts | 187° |
| 2026-04-25 12:25 | 36.46708 | -179.99976 | 38061 ft | 455 kts | 187° |
| 2026-04-25 12:25 | 36.40401 | -179.99976 | 38068 ft | 456 kts | 186° |
| 2026-04-25 12:26 | 36.34041 | -179.99977 | 38071 ft | 456 kts | 187° |
| 2026-04-25 12:26 | 36.27662 | -179.99982 | 38073 ft | 456 kts | 187° |
| 2026-04-25 12:27 | 36.21307 | -179.99982 | 38080 ft | 456 kts | 186° |
| 2026-04-25 12:27 | 36.15053 | -179.99980 | 38082 ft | 459 kts | 187° |
| 2026-04-25 12:28 | 36.08672 | -179.99980 | 38084 ft | 457 kts | 186° |
| 2026-04-25 12:28 | 36.02242 | -179.99985 | 38090 ft | 458 kts | 186° |
| 2026-04-25 12:29 | 35.95858 | -179.99963 | 38095 ft | 458 kts | 186° |
| 2026-04-25 12:29 | 35.89729 | -179.99979 | 38101 ft | 459 kts | 186° |
| 2026-04-25 12:30 | 35.83361 | -179.99974 | 38101 ft | 460 kts | 186° |
| 2026-04-25 12:30 | 35.77107 | -179.99973 | 38102 ft | 462 kts | 186° |
| 2026-04-25 12:31 | 35.70804 | -179.99980 | 38106 ft | 461 kts | 186° |
| 2026-04-25 12:31 | 35.64424 | -179.99977 | 38101 ft | 461 kts | 186° |
| 2026-04-25 12:32 | 35.58246 | -179.99983 | 38106 ft | 462 kts | 186° |
| 2026-04-25 12:32 | 35.51914 | -179.99980 | 38106 ft | 464 kts | 186° |
| 2026-04-25 12:33 | 35.45639 | -179.99977 | 38111 ft | 463 kts | 186° |
| 2026-04-25 12:33 | 35.39220 | -179.99982 | 38109 ft | 464 kts | 186° |
| 2026-04-25 12:34 | 35.32702 | -179.99980 | 38114 ft | 466 kts | 186° |
| 2026-04-25 12:34 | 35.26242 | -179.99979 | 38111 ft | 466 kts | 185° |
| 2026-04-25 12:35 | 35.19726 | -179.99980 | 38113 ft | 465 kts | 185° |
| 2026-04-25 12:35 | 35.13411 | -179.99982 | 38117 ft | 467 kts | 186° |
| 2026-04-25 12:36 | 35.07281 | -179.99982 | 38112 ft | 467 kts | 185° |
| 2026-04-25 12:36 | 35.01163 | -179.99989 | 38116 ft | 468 kts | 185° |
| 2026-04-25 12:37 | 34.94906 | -179.99965 | 38119 ft | 470 kts | 185° |
| 2026-04-25 12:37 | 34.88816 | -179.99979 | 38119 ft | 470 kts | 185° |
| 2026-04-25 12:38 | 34.82325 | -179.99979 | 38114 ft | 470 kts | 185° |
| 2026-04-25 12:38 | 34.75723 | -179.99976 | 38114 ft | 472 kts | 185° |
| 2026-04-25 12:39 | 34.69164 | -179.99977 | 38121 ft | 472 kts | 185° |
| 2026-04-25 12:39 | 34.62558 | -179.99977 | 38121 ft | 472 kts | 185° |
| 2026-04-25 12:40 | 34.56077 | -179.99979 | 38124 ft | 474 kts | 185° |
| 2026-04-25 12:40 | 34.49612 | -179.99980 | 38127 ft | 474 kts | 185° |
| 2026-04-25 12:41 | 34.43172 | -179.99980 | 38130 ft | 475 kts | 185° |
| 2026-04-25 12:41 | 34.36773 | -179.99980 | 38122 ft | 474 kts | 185° |
| 2026-04-25 12:42 | 34.30335 | -179.99980 | 38133 ft | 474 kts | 185° |
| 2026-04-25 12:42 | 34.23965 | -179.99982 | 38129 ft | 476 kts | 185° |
| 2026-04-25 12:43 | 34.17450 | -179.99983 | 38134 ft | 478 kts | 185° |
| 2026-04-25 12:43 | 34.08171 | -179.99983 | 38136 ft | 478 kts | 184° |
| 2026-04-25 12:44 | 34.02036 | -179.99989 | 38135 ft | 478 kts | 185° |
| 2026-04-25 12:45 | 33.92342 | -179.99971 | 38155 ft | 478 kts | 184° |
| 2026-04-25 12:45 | 33.82260 | -179.99980 | 38156 ft | 480 kts | 184° |
| 2026-04-25 12:46 | 33.75646 | -179.99977 | 38158 ft | 483 kts | 184° |
| 2026-04-25 12:46 | 33.68917 | -179.99980 | 38156 ft | 482 kts | 184° |
| 2026-04-25 12:47 | 33.62322 | -179.99982 | 38156 ft | 483 kts | 184° |
| 2026-04-25 12:47 | 33.55867 | -179.99982 | 38157 ft | 483 kts | 184° |
| 2026-04-25 12:48 | 33.49490 | -179.99982 | 38156 ft | 483 kts | 184° |
| 2026-04-25 12:48 | 33.43121 | -179.99980 | 38159 ft | 483 kts | 184° |
| 2026-04-25 12:49 | 33.36927 | -179.99985 | 38158 ft | 484 kts | 183° |
| 2026-04-25 12:49 | 33.30783 | -179.99988 | 38160 ft | 484 kts | 183° |
| 2026-04-25 12:50 | 33.24607 | -179.99988 | 38159 ft | 485 kts | 183° |
| 2026-04-25 12:50 | 33.18284 | -179.99988 | 38158 ft | 485 kts | 183° |
| 2026-04-25 12:51 | 33.11951 | -179.99988 | 38159 ft | 485 kts | 183° |
| 2026-04-25 12:51 | 33.05599 | -179.99988 | 38159 ft | 486 kts | 183° |
| 2026-04-25 12:52 | 32.99247 | -179.99989 | 38159 ft | 485 kts | 182° |
| 2026-04-25 12:52 | 32.92613 | -179.99977 | 38160 ft | 486 kts | 183° |
| 2026-04-25 12:53 | 32.85909 | -179.99979 | 38162 ft | 486 kts | 182° |
| 2026-04-25 12:53 | 32.79137 | -179.99982 | 38166 ft | 487 kts | 182° |
| 2026-04-25 12:54 | 32.72372 | -179.99982 | 38167 ft | 488 kts | 182° |
| 2026-04-25 12:54 | 32.65680 | -179.99982 | 38161 ft | 490 kts | 182° |
| 2026-04-25 12:55 | 32.60350 | -179.99986 | 38162 ft | 489 kts | 182° |
| 2026-04-25 12:55 | 32.52700 | -179.99983 | 38161 ft | 490 kts | 182° |
| 2026-04-25 12:56 | 32.46096 | -179.99985 | 38165 ft | 489 kts | 181° |
| 2026-04-25 12:56 | 32.39444 | -179.99986 | 38159 ft | 490 kts | 182° |
| 2026-04-25 12:57 | 32.32820 | -179.99988 | 38164 ft | 490 kts | 182° |
| 2026-04-25 12:57 | 32.26075 | -179.99986 | 38164 ft | 491 kts | 182° |
| 2026-04-25 12:58 | 32.19345 | -179.99986 | 38166 ft | 491 kts | 181° |
| 2026-04-25 12:58 | 32.12622 | -179.99988 | 38169 ft | 492 kts | 181° |
| 2026-04-25 12:59 | 32.05897 | -179.99988 | 38180 ft | 495 kts | 181° |
| 2026-04-25 12:59 | 31.99059 | -179.99991 | 38178 ft | 499 kts | 181° |
| 2026-04-25 13:00 | 31.93298 | -179.99973 | 38176 ft | 500 kts | 181° |
| 2026-04-25 13:00 | 31.85253 | -179.99983 | 38180 ft | 500 kts | 181° |
| 2026-04-25 13:01 | 31.78406 | -179.99986 | 38179 ft | 501 kts | 181° |
| 2026-04-25 13:01 | 31.71590 | -179.99983 | 38180 ft | 500 kts | 181° |
| 2026-04-25 13:02 | 31.64724 | -179.99983 | 38184 ft | 499 kts | 181° |
| 2026-04-25 13:02 | 31.57864 | -179.99983 | 38181 ft | 498 kts | 181° |
| 2026-04-25 13:03 | 31.51066 | -179.99983 | 38178 ft | 499 kts | 181° |
| 2026-04-25 13:03 | 31.44186 | -179.99985 | 38182 ft | 500 kts | 180° |
| 2026-04-25 13:04 | 31.37260 | -179.99988 | 38181 ft | 500 kts | 180° |
| 2026-04-25 13:04 | 31.30313 | -179.99989 | 38181 ft | 500 kts | 180° |
| 2026-04-25 13:05 | 31.23366 | -179.99989 | 38180 ft | 499 kts | 180° |
| 2026-04-25 13:05 | 31.16390 | -179.99989 | 38179 ft | 499 kts | 181° |
| 2026-04-25 13:06 | 31.09588 | -179.99989 | 38169 ft | 499 kts | 181° |
| 2026-04-25 13:06 | 31.02577 | -179.99992 | 38161 ft | 498 kts | 181° |
| 2026-04-25 13:07 | 30.95619 | -179.99974 | 38160 ft | 499 kts | 181° |
| 2026-04-25 13:07 | 30.88742 | -179.99986 | 38168 ft | 500 kts | 180° |
| 2026-04-25 13:08 | 30.81870 | -179.99980 | 38163 ft | 499 kts | 180° |
| 2026-04-25 13:08 | 30.75016 | -179.99983 | 38158 ft | 499 kts | 180° |
| 2026-04-25 13:09 | 30.68308 | -179.99989 | 38162 ft | 499 kts | 180° |
| 2026-04-25 13:09 | 30.61452 | -179.99988 | 38166 ft | 499 kts | 180° |
| 2026-04-25 13:10 | 30.54560 | -179.99983 | 38158 ft | 499 kts | 180° |
| 2026-04-25 13:10 | 30.47633 | -179.99985 | 38162 ft | 499 kts | 180° |
| 2026-04-25 13:11 | 30.40720 | -179.99986 | 38161 ft | 498 kts | 180° |
| 2026-04-25 13:11 | 30.34179 | -179.99988 | 38163 ft | 498 kts | 180° |
| 2026-04-25 13:12 | 30.27244 | -179.99986 | 38161 ft | 499 kts | 180° |
| 2026-04-25 13:12 | 30.21436 | -179.99988 | 38160 ft | 499 kts | 180° |
| 2026-04-25 13:13 | 30.13286 | -179.99988 | 38157 ft | 499 kts | 180° |
| 2026-04-25 13:13 | 30.06552 | -179.99988 | 38163 ft | 493 kts | 180° |
| 2026-04-25 13:14 | 30.00055 | -179.99995 | 38162 ft | 489 kts | 180° |
| 2026-04-25 13:14 | 29.93568 | -179.99976 | 38159 ft | 490 kts | 180° |
| 2026-04-25 13:15 | 29.87090 | -179.99991 | 38158 ft | 490 kts | 180° |
| 2026-04-25 13:15 | 29.80565 | -179.99986 | 38159 ft | 490 kts | 180° |
| 2026-04-25 13:16 | 29.74110 | -179.99985 | 38160 ft | 489 kts | 180° |
| 2026-04-25 13:16 | 29.67594 | -179.99986 | 38157 ft | 489 kts | 179° |
| 2026-04-25 13:17 | 29.61278 | -179.99991 | 38160 ft | 489 kts | 179° |
| 2026-04-25 13:17 | 29.55037 | -179.99991 | 38159 ft | 490 kts | 180° |
| 2026-04-25 13:18 | 29.48626 | -179.99989 | 38159 ft | 489 kts | 180° |
| 2026-04-25 13:18 | 29.42161 | -179.99988 | 38159 ft | 489 kts | 180° |
| 2026-04-25 13:19 | 29.35733 | -179.99989 | 38160 ft | 489 kts | 179° |
| 2026-04-25 13:19 | 29.30378 | -179.99989 | 38158 ft | 489 kts | 179° |
| 2026-04-25 13:20 | 29.22837 | -179.99989 | 38159 ft | 489 kts | 180° |
| 2026-04-25 13:20 | 29.16437 | -179.99989 | 38160 ft | 489 kts | 179° |
| 2026-04-25 13:21 | 29.09973 | -179.99991 | 38158 ft | 488 kts | 179° |
| 2026-04-25 13:21 | 29.03492 | -179.99995 | 38159 ft | 489 kts | 179° |
| 2026-04-25 13:22 | 28.97062 | -179.99980 | 38153 ft | 489 kts | 179° |
| 2026-04-25 13:23 | 28.87375 | -179.99992 | 38139 ft | 490 kts | 179° |
| 2026-04-25 13:23 | 28.80926 | -179.99986 | 38137 ft | 490 kts | 179° |
| 2026-04-25 13:24 | 28.74367 | -179.99985 | 38139 ft | 490 kts | 179° |
| 2026-04-25 13:24 | 28.67850 | -179.99991 | 38137 ft | 489 kts | 179° |
| 2026-04-25 13:25 | 28.61373 | -179.99992 | 38137 ft | 489 kts | 179° |
| 2026-04-25 13:25 | 28.54943 | -179.99988 | 38134 ft | 490 kts | 179° |
| 2026-04-25 13:26 | 28.48491 | -179.99988 | 38136 ft | 490 kts | 179° |
| 2026-04-25 13:26 | 28.41999 | -179.99992 | 38136 ft | 490 kts | 179° |
| 2026-04-25 13:27 | 28.35514 | -179.99994 | 38141 ft | 489 kts | 179° |
| 2026-04-25 13:27 | 28.29149 | -179.99994 | 38144 ft | 489 kts | 179° |
| 2026-04-25 13:28 | 28.22670 | -179.99992 | 38143 ft | 490 kts | 180° |
| 2026-04-25 13:28 | 28.16180 | -179.99994 | 38140 ft | 491 kts | 179° |
| 2026-04-25 13:29 | 28.09951 | -179.99994 | 38140 ft | 490 kts | 179° |
| 2026-04-25 13:29 | 28.03588 | -179.99994 | 38137 ft | 489 kts | 179° |
| 2026-04-25 13:30 | 27.93861 | -179.99985 | 38150 ft | 490 kts | 180° |
| 2026-04-25 13:31 | 27.84168 | -179.99986 | 38153 ft | 490 kts | 180° |
| 2026-04-25 13:31 | 27.77702 | -179.99988 | 38154 ft | 491 kts | 179° |
| 2026-04-25 13:32 | 27.71229 | -179.99994 | 38152 ft | 491 kts | 179° |
| 2026-04-25 13:32 | 27.64682 | -179.99991 | 38151 ft | 491 kts | 179° |
| 2026-04-25 13:33 | 27.58144 | -179.99991 | 38150 ft | 490 kts | 179° |
| 2026-04-25 13:33 | 27.51632 | -179.99991 | 38146 ft | 490 kts | 179° |
| 2026-04-25 13:34 | 27.45039 | -179.99991 | 38148 ft | 491 kts | 179° |
| 2026-04-25 13:34 | 27.38580 | -179.99992 | 38146 ft | 490 kts | 179° |
| 2026-04-25 13:35 | 27.32169 | -179.99995 | 38141 ft | 491 kts | 179° |
| 2026-04-25 13:35 | 27.25618 | -179.99995 | 38140 ft | 491 kts | 179° |
| 2026-04-25 13:36 | 27.19096 | -179.99997 | 38137 ft | 491 kts | 179° |
| 2026-04-25 13:36 | 27.12566 | -179.99995 | 38138 ft | 491 kts | 179° |
| 2026-04-25 13:37 | 27.06022 | -179.99995 | 38138 ft | 490 kts | 179° |
| 2026-04-25 13:37 | 26.99396 | -180.00000 | 38137 ft | 490 kts | 179° |
| 2026-04-25 13:38 | 26.92722 | -179.99982 | 38134 ft | 490 kts | 179° |
| 2026-04-25 13:38 | 26.86031 | -179.99995 | 38135 ft | 490 kts | 179° |
| 2026-04-25 13:39 | 26.79289 | -179.99991 | 38137 ft | 490 kts | 179° |
| 2026-04-25 13:39 | 26.72610 | -179.99988 | 38131 ft | 490 kts | 179° |
| 2026-04-25 13:40 | 26.65868 | -179.99997 | 38138 ft | 490 kts | 179° |
| 2026-04-25 13:40 | 26.59377 | -179.99994 | 38135 ft | 490 kts | 179° |
| 2026-04-25 13:41 | 26.52636 | -179.99992 | 38133 ft | 490 kts | 179° |
| 2026-04-25 13:41 | 26.45910 | -179.99992 | 38137 ft | 490 kts | 179° |
| 2026-04-25 13:42 | 26.39228 | -179.99994 | 38134 ft | 489 kts | 179° |
| 2026-04-25 13:42 | 26.32544 | -179.99992 | 38135 ft | 489 kts | 179° |
| 2026-04-25 13:43 | 26.25787 | -179.99994 | 38134 ft | 489 kts | 179° |
| 2026-04-25 13:43 | 26.19104 | -179.99995 | 38139 ft | 489 kts | 179° |
| 2026-04-25 13:44 | 26.12406 | -179.99995 | 38138 ft | 490 kts | 180° |
| 2026-04-25 13:44 | 26.05663 | -179.99997 | 38136 ft | 489 kts | 180° |
| 2026-04-25 13:45 | 25.98874 | -179.99997 | 38131 ft | 488 kts | 179° |
| 2026-04-25 13:45 | 25.92141 | -179.99983 | 38134 ft | 488 kts | 180° |
| 2026-04-25 13:46 | 25.85727 | -179.99997 | 38132 ft | 489 kts | 179° |
| 2026-04-25 13:46 | 25.79411 | -179.99994 | 38131 ft | 489 kts | 179° |
| 2026-04-25 13:47 | 25.72790 | -179.99992 | 38128 ft | 489 kts | 180° |
| 2026-04-25 13:47 | 25.66124 | -179.99991 | 38127 ft | 488 kts | 179° |
| 2026-04-25 13:48 | 25.59437 | -179.99997 | 38125 ft | 488 kts | 179° |
| 2026-04-25 13:48 | 25.52656 | -179.99999 | 38123 ft | 488 kts | 179° |
| 2026-04-25 13:49 | 25.45884 | -179.99997 | 38115 ft | 488 kts | 179° |
| 2026-04-25 13:49 | 25.39152 | -179.99995 | 38113 ft | 488 kts | 180° |
| 2026-04-25 13:50 | 25.32388 | -179.99995 | 38117 ft | 487 kts | 179° |
| 2026-04-25 13:50 | 25.25601 | -179.99997 | 38118 ft | 487 kts | 179° |
| 2026-04-25 13:51 | 25.18844 | -179.99997 | 38114 ft | 488 kts | 179° |
| 2026-04-25 13:51 | 25.12086 | -179.99999 | 38111 ft | 488 kts | 180° |
| 2026-04-25 13:52 | 25.05378 | -179.99999 | 38114 ft | 487 kts | 179° |
| 2026-04-25 13:52 | 24.98660 | -179.99997 | 38117 ft | 487 kts | 179° |
| 2026-04-25 13:53 | 24.91991 | -179.99988 | 38118 ft | 487 kts | 180° |
| 2026-04-25 13:53 | 24.85259 | -179.99994 | 38116 ft | 487 kts | 179° |
| 2026-04-25 13:54 | 24.78598 | -179.99997 | 38117 ft | 487 kts | 179° |
| 2026-04-25 13:54 | 24.71880 | -179.99994 | 38117 ft | 487 kts | 179° |
| 2026-04-25 13:55 | 24.65212 | -179.99994 | 38117 ft | 487 kts | 179° |
| 2026-04-25 13:55 | 24.58575 | -179.99994 | 38117 ft | 486 kts | 179° |
| 2026-04-25 13:56 | 24.52261 | -179.99997 | 38117 ft | 486 kts | 179° |
| 2026-04-25 13:56 | 24.45699 | -180.00000 | 38117 ft | 486 kts | 179° |
| 2026-04-25 13:57 | 24.39025 | 180.00000 | 38118 ft | 486 kts | 179° |
| 2026-04-25 13:57 | 24.32407 | -180.00000 | 38118 ft | 486 kts | 179° |
| 2026-04-25 13:58 | 24.25746 | -179.99999 | 38117 ft | 485 kts | 179° |
| 2026-04-25 13:58 | 24.19085 | 180.00000 | 38118 ft | 485 kts | 179° |
| 2026-04-25 13:59 | 24.12427 | 179.99999 | 38117 ft | 485 kts | 179° |
| 2026-04-25 13:59 | 24.05732 | 179.99999 | 38117 ft | 485 kts | 179° |
| 2026-04-25 14:00 | 23.99116 | 179.99999 | 38116 ft | 485 kts | 179° |
| 2026-04-25 14:00 | 23.92471 | -179.99988 | 38098 ft | 486 kts | 179° |
| 2026-04-25 14:01 | 23.85845 | 179.99999 | 38115 ft | 485 kts | 179° |
| 2026-04-25 14:01 | 23.79447 | -179.99995 | 38107 ft | 484 kts | 179° |
| 2026-04-25 14:02 | 23.72789 | -179.99994 | 38104 ft | 485 kts | 179° |
| 2026-04-25 14:02 | 23.66088 | -179.99997 | 38110 ft | 485 kts | 179° |
| 2026-04-25 14:03 | 23.59455 | 179.99999 | 38112 ft | 485 kts | 179° |
| 2026-04-25 14:03 | 23.52843 | -179.99999 | 38105 ft | 485 kts | 179° |
| 2026-04-25 14:04 | 23.46152 | -179.99997 | 38107 ft | 485 kts | 179° |
| 2026-04-25 14:04 | 23.39453 | -179.99997 | 38088 ft | 485 kts | 179° |
| 2026-04-25 14:05 | 23.32783 | -179.99999 | 38091 ft | 485 kts | 179° |
| 2026-04-25 14:05 | 23.26104 | 180.00000 | 38095 ft | 485 kts | 179° |
| 2026-04-25 14:06 | 23.19451 | 179.99999 | 38100 ft | 486 kts | 179° |
| 2026-04-25 14:06 | 23.12777 | 179.99999 | 38079 ft | 487 kts | 179° |
| 2026-04-25 14:07 | 23.06088 | 179.99999 | 38091 ft | 486 kts | 179° |
| 2026-04-25 14:07 | 22.99484 | 179.99999 | 38091 ft | 486 kts | 179° |
| 2026-04-25 14:08 | 22.92854 | -179.99995 | 38082 ft | 486 kts | 180° |
| 2026-04-25 14:08 | 22.86124 | -179.99994 | 38071 ft | 486 kts | 180° |
| 2026-04-25 14:09 | 22.79449 | 180.00000 | 38073 ft | 487 kts | 179° |
| 2026-04-25 14:09 | 22.72796 | -179.99997 | 38073 ft | 488 kts | 180° |
| 2026-04-25 14:10 | 22.66103 | -179.99995 | 38068 ft | 487 kts | 180° |
| 2026-04-25 14:10 | 22.59404 | -180.00000 | 38074 ft | 487 kts | 180° |
| 2026-04-25 14:11 | 22.52689 | 179.99997 | 38072 ft | 487 kts | 180° |
| 2026-04-25 14:11 | 22.45973 | 179.99997 | 38087 ft | 487 kts | 180° |
| 2026-04-25 14:12 | 22.39305 | -180.00000 | 38075 ft | 486 kts | 180° |
| 2026-04-25 14:12 | 22.32644 | -180.00000 | 38082 ft | 487 kts | 180° |
| 2026-04-25 14:13 | 22.26283 | 179.99999 | 38080 ft | 486 kts | 180° |
| 2026-04-25 14:13 | 22.19789 | 179.99999 | 38077 ft | 486 kts | 180° |
| 2026-04-25 14:14 | 22.13256 | 179.99997 | 38072 ft | 485 kts | 180° |
| 2026-04-25 14:14 | 22.06803 | 179.99997 | 38070 ft | 485 kts | 181° |
| 2026-04-25 14:15 | 22.00314 | 179.99992 | 38065 ft | 484 kts | 181° |
| 2026-04-25 14:15 | 21.93760 | -179.99989 | 38072 ft | 484 kts | 181° |
| 2026-04-25 14:16 | 21.87267 | 179.99997 | 38070 ft | 484 kts | 181° |
| 2026-04-25 14:16 | 21.80631 | -179.99997 | 38074 ft | 484 kts | 181° |
| 2026-04-25 14:17 | 21.73995 | -179.99999 | 38069 ft | 485 kts | 181° |
| 2026-04-25 14:17 | 21.67274 | 179.99997 | 38072 ft | 485 kts | 181° |
| 2026-04-25 14:18 | 21.60642 | 179.99999 | 38068 ft | 484 kts | 181° |
| 2026-04-25 14:18 | 21.53980 | -179.99999 | 38061 ft | 483 kts | 182° |
| 2026-04-25 14:19 | 21.47351 | -180.00000 | 38062 ft | 482 kts | 181° |
| 2026-04-25 14:19 | 21.40680 | 179.99999 | 38062 ft | 482 kts | 182° |
| 2026-04-25 14:20 | 21.34155 | 179.99995 | 38060 ft | 481 kts | 182° |
| 2026-04-25 14:20 | 21.27651 | 179.99995 | 38061 ft | 482 kts | 182° |
| 2026-04-25 14:21 | 21.21087 | 179.99994 | 38061 ft | 481 kts | 182° |
| 2026-04-25 14:21 | 21.14544 | 179.99995 | 38053 ft | 479 kts | 182° |
| 2026-04-25 14:22 | 21.08021 | 179.99995 | 38057 ft | 478 kts | 182° |
| 2026-04-25 14:22 | 21.01510 | 179.99994 | 38051 ft | 478 kts | 182° |
| 2026-04-25 14:23 | 20.95114 | -179.99994 | 38055 ft | 478 kts | 182° |
| 2026-04-25 14:23 | 20.88539 | 179.99994 | 38054 ft | 478 kts | 182° |
| 2026-04-25 14:24 | 20.81991 | -179.99999 | 38047 ft | 478 kts | 182° |
| 2026-04-25 14:24 | 20.75443 | -179.99999 | 38046 ft | 477 kts | 183° |
| 2026-04-25 14:25 | 20.68901 | 179.99995 | 38043 ft | 477 kts | 182° |
| 2026-04-25 14:25 | 20.62402 | 179.99995 | 38036 ft | 476 kts | 183° |
| 2026-04-25 14:26 | 20.55888 | 179.99999 | 38034 ft | 475 kts | 183° |
| 2026-04-25 14:26 | 20.49392 | 179.99999 | 38030 ft | 476 kts | 183° |
| 2026-04-25 14:27 | 20.42927 | 179.99995 | 38028 ft | 476 kts | 183° |
| 2026-04-25 14:27 | 20.36488 | 179.99995 | 38026 ft | 475 kts | 184° |
| 2026-04-25 14:28 | 20.30023 | 179.99997 | 38022 ft | 475 kts | 184° |
| 2026-04-25 14:28 | 20.23597 | 179.99997 | 38020 ft | 474 kts | 184° |
| 2026-04-25 14:29 | 20.17144 | 179.99995 | 38017 ft | 474 kts | 184° |
| 2026-04-25 14:29 | 20.10683 | 179.99994 | 38014 ft | 473 kts | 184° |
| 2026-04-25 14:30 | 20.04522 | 179.99992 | 38018 ft | 472 kts | 184° |
| 2026-04-25 14:30 | 19.95033 | -179.99994 | 38012 ft | 472 kts | 184° |
| 2026-04-25 14:31 | 19.88570 | 179.99995 | 37994 ft | 472 kts | 184° |
| 2026-04-25 14:31 | 19.82138 | -179.99999 | 37993 ft | 471 kts | 184° |
| 2026-04-25 14:32 | 19.75641 | 179.99997 | 38012 ft | 471 kts | 184° |
| 2026-04-25 14:32 | 19.69270 | 179.99995 | 38013 ft | 471 kts | 185° |
| 2026-04-25 14:33 | 19.62873 | 179.99997 | 38014 ft | 471 kts | 185° |
| 2026-04-25 14:33 | 19.56441 | 179.99999 | 38014 ft | 471 kts | 185° |
| 2026-04-25 14:34 | 19.50010 | 179.99997 | 38016 ft | 471 kts | 185° |
| 2026-04-25 14:34 | 19.43632 | 179.99994 | 38020 ft | 471 kts | 185° |
| 2026-04-25 14:35 | 19.37255 | 179.99992 | 38022 ft | 471 kts | 185° |
| 2026-04-25 14:35 | 19.31014 | 179.99992 | 38022 ft | 471 kts | 185° |
| 2026-04-25 14:36 | 19.24826 | 179.99992 | 38020 ft | 471 kts | 185° |
| 2026-04-25 14:36 | 19.18576 | 179.99992 | 38018 ft | 470 kts | 186° |
| 2026-04-25 14:37 | 19.12335 | 179.99992 | 38019 ft | 470 kts | 186° |
| 2026-04-25 14:37 | 19.06056 | 179.99992 | 38016 ft | 470 kts | 186° |
| 2026-04-25 14:38 | 18.99764 | 179.99989 | 38016 ft | 470 kts | 186° |
| 2026-04-25 14:38 | 18.93522 | -179.99997 | 38016 ft | 470 kts | 186° |
| 2026-04-25 14:39 | 18.87145 | 179.99991 | 38015 ft | 470 kts | 186° |
| 2026-04-25 14:39 | 18.80847 | 179.99997 | 38008 ft | 471 kts | 186° |
| 2026-04-25 14:40 | 18.74540 | 179.99999 | 38012 ft | 471 kts | 186° |
| 2026-04-25 14:40 | 18.68267 | 179.99992 | 38014 ft | 471 kts | 186° |
| 2026-04-25 14:41 | 18.61977 | 179.99991 | 38007 ft | 471 kts | 186° |
| 2026-04-25 14:41 | 18.55828 | 179.99992 | 38010 ft | 471 kts | 186° |
| 2026-04-25 14:42 | 18.50612 | 179.99994 | 38005 ft | 471 kts | 186° |
| 2026-04-25 14:42 | 18.43252 | 179.99994 | 38006 ft | 471 kts | 186° |
| 2026-04-25 14:43 | 18.36956 | 179.99994 | 38004 ft | 472 kts | 186° |
| 2026-04-25 14:43 | 18.30675 | 179.99992 | 38003 ft | 471 kts | 186° |
| 2026-04-25 14:44 | 18.24377 | 179.99994 | 38001 ft | 472 kts | 186° |
| 2026-04-25 14:44 | 18.18026 | 179.99992 | 38003 ft | 473 kts | 186° |
| 2026-04-25 14:45 | 18.11765 | 179.99991 | 37998 ft | 474 kts | 186° |
| 2026-04-25 14:45 | 18.05457 | 179.99992 | 37995 ft | 473 kts | 186° |
| 2026-04-25 14:46 | 17.99177 | 179.99989 | 37995 ft | 473 kts | 186° |
| 2026-04-25 14:46 | 17.92863 | -179.99999 | 37995 ft | 472 kts | 186° |
| 2026-04-25 14:47 | 17.87534 | 179.99991 | 37993 ft | 473 kts | 186° |
| 2026-04-25 14:47 | 17.80045 | 179.99995 | 37994 ft | 472 kts | 186° |
| 2026-04-25 14:48 | 17.73588 | 179.99997 | 37991 ft | 473 kts | 186° |
| 2026-04-25 14:48 | 17.67139 | 179.99991 | 37989 ft | 473 kts | 186° |
| 2026-04-25 14:49 | 17.60687 | 179.99989 | 37988 ft | 474 kts | 186° |
| 2026-04-25 14:49 | 17.54241 | 179.99992 | 37989 ft | 473 kts | 186° |
| 2026-04-25 14:50 | 17.47758 | 179.99991 | 37986 ft | 474 kts | 186° |
| 2026-04-25 14:50 | 17.41342 | 179.99994 | 37985 ft | 473 kts | 187° |
| 2026-04-25 14:51 | 17.34846 | 179.99992 | 37980 ft | 474 kts | 186° |
| 2026-04-25 14:51 | 17.28426 | 179.99989 | 37981 ft | 474 kts | 186° |
| 2026-04-25 14:52 | 17.21983 | 179.99988 | 37982 ft | 475 kts | 186° |
| 2026-04-25 14:52 | 17.16570 | 179.99991 | 37976 ft | 475 kts | 187° |
| 2026-04-25 14:53 | 17.09008 | 179.99989 | 37975 ft | 475 kts | 187° |
| 2026-04-25 14:53 | 17.02797 | 179.99988 | 37976 ft | 475 kts | 187° |
| 2026-04-25 14:54 | 16.96479 | 180.00000 | 37974 ft | 475 kts | 187° |
| 2026-04-25 14:54 | 16.89969 | 179.99992 | 37973 ft | 474 kts | 187° |
| 2026-04-25 14:55 | 16.83510 | 179.99994 | 37972 ft | 475 kts | 187° |
| 2026-04-25 14:55 | 16.76985 | 179.99995 | 37969 ft | 476 kts | 187° |
| 2026-04-25 14:56 | 16.70455 | 179.99988 | 37967 ft | 477 kts | 186° |
| 2026-04-25 14:56 | 16.63970 | 179.99992 | 37967 ft | 477 kts | 187° |
| 2026-04-25 14:57 | 16.57355 | 179.99994 | 37966 ft | 478 kts | 187° |
| 2026-04-25 14:57 | 16.50858 | 179.99992 | 37964 ft | 478 kts | 186° |
| 2026-04-25 14:58 | 16.44297 | 179.99991 | 37964 ft | 478 kts | 186° |
| 2026-04-25 14:58 | 16.37777 | 179.99989 | 37962 ft | 479 kts | 186° |
| 2026-04-25 14:59 | 16.31296 | 179.99989 | 37961 ft | 480 kts | 186° |
| 2026-04-25 14:59 | 16.24731 | 179.99989 | 37959 ft | 479 kts | 186° |
| 2026-04-25 15:00 | 16.18129 | 179.99988 | 37957 ft | 480 kts | 186° |
| 2026-04-25 15:00 | 16.11479 | 179.99989 | 37958 ft | 481 kts | 186° |
| 2026-04-25 15:01 | 16.04864 | 179.99988 | 37952 ft | 481 kts | 187° |
| 2026-04-25 15:01 | 15.98274 | 179.99983 | 37953 ft | 482 kts | 187° |
| 2026-04-25 15:02 | 15.91611 | 179.99982 | 37952 ft | 482 kts | 187° |
| 2026-04-25 15:02 | 15.84998 | 179.99983 | 37951 ft | 482 kts | 187° |
| 2026-04-25 15:03 | 15.78358 | 179.99983 | 37950 ft | 482 kts | 186° |
| 2026-04-25 15:03 | 15.71706 | 179.99983 | 37952 ft | 482 kts | 186° |
| 2026-04-25 15:04 | 15.65112 | 179.99985 | 37953 ft | 481 kts | 186° |
| 2026-04-25 15:04 | 15.58474 | 179.99985 | 37952 ft | 482 kts | 186° |
| 2026-04-25 15:05 | 15.52169 | 179.99985 | 37952 ft | 482 kts | 186° |
| 2026-04-25 15:06 | 15.42396 | 179.99985 | 37952 ft | 482 kts | 186° |
| 2026-04-25 15:06 | 15.35709 | 179.99986 | 37953 ft | 482 kts | 186° |
| 2026-04-25 15:07 | 15.29065 | 179.99988 | 37943 ft | 482 kts | 186° |
| 2026-04-25 15:07 | 15.22375 | 179.99989 | 37930 ft | 482 kts | 186° |
| 2026-04-25 15:08 | 15.15714 | 179.99991 | 37929 ft | 483 kts | 186° |
| 2026-04-25 15:08 | 15.09115 | 179.99911 | 37925 ft | 479 kts | 191° |
| 2026-04-25 15:09 | 15.02799 | 179.98509 | 37928 ft | 464 kts | 206° |
| 2026-04-25 15:09 | 14.94774 | 179.93630 | 37929 ft | 450 kts | 226° |
| 2026-04-25 15:10 | 14.90558 | 179.89049 | 37930 ft | 445 kts | 233° |
| 2026-04-25 15:11 | 14.84565 | 179.81976 | 37928 ft | 446 kts | 233° |
| 2026-04-25 15:11 | 14.80738 | 179.77484 | 37928 ft | 445 kts | 233° |
| 2026-04-25 15:12 | 14.74991 | 179.70760 | 37929 ft | 446 kts | 233° |
| 2026-04-25 15:12 | 14.71799 | 179.67030 | 37928 ft | 446 kts | 233° |
| 2026-04-25 15:13 | 14.65254 | 179.59393 | 37929 ft | 446 kts | 233° |
| 2026-04-25 15:14 | 14.61174 | 179.54637 | 37935 ft | 445 kts | 233° |
| 2026-04-25 15:14 | 14.57141 | 179.49939 | 37941 ft | 445 kts | 233° |
| 2026-04-25 15:15 | 14.53079 | 179.45209 | 37946 ft | 445 kts | 233° |
| 2026-04-25 15:15 | 14.49016 | 179.40482 | 37951 ft | 445 kts | 233° |
| 2026-04-25 15:16 | 14.44967 | 179.35774 | 38425 ft | 438 kts | 233° |
| 2026-04-25 15:16 | 14.42991 | 179.33479 | 38913 ft | 433 kts | 233° |
| 2026-04-25 15:16 | 14.39053 | 179.28908 | 39875 ft | 424 kts | 232° |
| 2026-04-25 15:17 | 14.33103 | 179.21991 | 39930 ft | 434 kts | 232° |
| 2026-04-25 15:18 | 14.29086 | 179.17329 | 39929 ft | 440 kts | 232° |
| 2026-04-25 15:18 | 14.23099 | 179.10390 | 39931 ft | 441 kts | 232° |
| 2026-04-25 15:19 | 14.19772 | 179.06535 | 39932 ft | 441 kts | 233° |
| 2026-04-25 15:19 | 14.15111 | 179.01140 | 39932 ft | 441 kts | 232° |
| 2026-04-25 15:20 | 14.11119 | 178.96519 | 39933 ft | 442 kts | 232° |
| 2026-04-25 15:20 | 14.07103 | 178.91875 | 39932 ft | 442 kts | 232° |
| 2026-04-25 15:21 | 14.03043 | 178.87183 | 39932 ft | 441 kts | 232° |
| 2026-04-25 15:21 | 13.99054 | 178.82573 | 39932 ft | 441 kts | 232° |
| 2026-04-25 15:22 | 13.95054 | 178.77957 | 39933 ft | 442 kts | 232° |
| 2026-04-25 15:22 | 13.91018 | 178.73300 | 39930 ft | 441 kts | 232° |
| 2026-04-25 15:23 | 13.87005 | 178.68672 | 39929 ft | 441 kts | 232° |
| 2026-04-25 15:23 | 13.82944 | 178.63992 | 39926 ft | 441 kts | 232° |
| 2026-04-25 15:24 | 13.78933 | 178.59370 | 39929 ft | 442 kts | 232° |
| 2026-04-25 15:24 | 13.75561 | 178.55487 | 39925 ft | 442 kts | 232° |
| 2026-04-25 15:25 | 13.70845 | 178.50061 | 39929 ft | 442 kts | 232° |
| 2026-04-25 15:25 | 13.66819 | 178.45430 | 39923 ft | 442 kts | 232° |
| 2026-04-25 15:26 | 13.62824 | 178.40840 | 39923 ft | 442 kts | 232° |
| 2026-04-25 15:26 | 13.58826 | 178.36247 | 39926 ft | 442 kts | 232° |
| 2026-04-25 15:27 | 13.54827 | 178.31656 | 39925 ft | 441 kts | 232° |
| 2026-04-25 15:28 | 13.48818 | 178.24760 | 39925 ft | 442 kts | 232° |
| 2026-04-25 15:28 | 13.44808 | 178.20163 | 39920 ft | 441 kts | 232° |
| 2026-04-25 15:29 | 13.40819 | 178.15593 | 39918 ft | 442 kts | 232° |
| 2026-04-25 15:29 | 13.36809 | 178.10998 | 39918 ft | 442 kts | 232° |
| 2026-04-25 15:30 | 13.32767 | 178.06370 | 39909 ft | 442 kts | 232° |
| 2026-04-25 15:30 | 13.28760 | 178.01788 | 39906 ft | 442 kts | 232° |
| 2026-04-25 15:31 | 13.24732 | 177.97182 | 39901 ft | 442 kts | 232° |
| 2026-04-25 15:31 | 13.20687 | 177.92558 | 39899 ft | 443 kts | 232° |
| 2026-04-25 15:32 | 13.16637 | 177.87933 | 39899 ft | 442 kts | 232° |
| 2026-04-25 15:32 | 13.12613 | 177.83340 | 39898 ft | 443 kts | 232° |
| 2026-04-25 15:33 | 13.06539 | 177.76410 | 39908 ft | 442 kts | 232° |
| 2026-04-25 15:33 | 13.02498 | 177.71803 | 39914 ft | 442 kts | 233° |
| 2026-04-25 15:34 | 12.98469 | 177.67213 | 39912 ft | 442 kts | 233° |
| 2026-04-25 15:34 | 12.95139 | 177.63420 | 39912 ft | 441 kts | 233° |
| 2026-04-25 15:35 | 12.88484 | 177.55843 | 39911 ft | 441 kts | 233° |
| 2026-04-25 15:36 | 12.82457 | 177.48987 | 39909 ft | 441 kts | 233° |
| 2026-04-25 15:36 | 12.78483 | 177.44472 | 39909 ft | 441 kts | 232° |
| 2026-04-25 15:37 | 12.74490 | 177.39937 | 39907 ft | 442 kts | 233° |
| 2026-04-25 15:37 | 12.70499 | 177.35406 | 39907 ft | 442 kts | 233° |
| 2026-04-25 15:38 | 12.66487 | 177.30852 | 39906 ft | 442 kts | 232° |
| 2026-04-25 15:38 | 12.62473 | 177.26298 | 39904 ft | 443 kts | 232° |
| 2026-04-25 15:39 | 12.58441 | 177.21725 | 39905 ft | 443 kts | 232° |
| 2026-04-25 15:39 | 12.54426 | 177.17177 | 39903 ft | 443 kts | 232° |
| 2026-04-25 15:40 | 12.51026 | 177.13327 | 39902 ft | 443 kts | 232° |
| 2026-04-25 15:40 | 12.46302 | 177.07980 | 39897 ft | 443 kts | 232° |
| 2026-04-25 15:41 | 12.42254 | 177.03401 | 39899 ft | 443 kts | 233° |
| 2026-04-25 15:41 | 12.38180 | 176.98793 | 39898 ft | 443 kts | 232° |
| 2026-04-25 15:42 | 12.34116 | 176.94199 | 39898 ft | 443 kts | 232° |
| 2026-04-25 15:42 | 12.30088 | 176.89647 | 39898 ft | 442 kts | 232° |
| 2026-04-25 15:43 | 12.26090 | 176.85133 | 39897 ft | 442 kts | 232° |
| 2026-04-25 15:43 | 12.22125 | 176.80658 | 39895 ft | 443 kts | 232° |
| 2026-04-25 15:44 | 12.18061 | 176.76076 | 39897 ft | 442 kts | 232° |
| 2026-04-25 15:44 | 12.14018 | 176.71516 | 39898 ft | 442 kts | 232° |
| 2026-04-25 15:45 | 12.09974 | 176.66959 | 39899 ft | 442 kts | 232° |
| 2026-04-25 15:45 | 12.06586 | 176.63141 | 39898 ft | 442 kts | 232° |
| 2026-04-25 15:46 | 12.01778 | 176.57729 | 39900 ft | 443 kts | 232° |
| 2026-04-25 15:46 | 11.97704 | 176.53143 | 39900 ft | 443 kts | 232° |
| 2026-04-25 15:47 | 11.93833 | 176.48790 | 39901 ft | 442 kts | 232° |
| 2026-04-25 15:47 | 11.89779 | 176.44232 | 39901 ft | 443 kts | 232° |
| 2026-04-25 15:48 | 11.85660 | 176.39606 | 39904 ft | 443 kts | 232° |
| 2026-04-25 15:48 | 11.81582 | 176.35023 | 39906 ft | 442 kts | 232° |
| 2026-04-25 15:49 | 11.77552 | 176.30499 | 39909 ft | 441 kts | 232° |
| 2026-04-25 15:49 | 11.73466 | 176.25915 | 39906 ft | 442 kts | 232° |
| 2026-04-25 15:50 | 11.69424 | 176.21381 | 39905 ft | 442 kts | 232° |
| 2026-04-25 15:50 | 11.65337 | 176.16800 | 39904 ft | 441 kts | 232° |
| 2026-04-25 15:51 | 11.61947 | 176.13001 | 39904 ft | 442 kts | 232° |
| 2026-04-25 15:51 | 11.57138 | 176.07616 | 39903 ft | 441 kts | 232° |
| 2026-04-25 15:52 | 11.53014 | 176.02998 | 39901 ft | 441 kts | 232° |
| 2026-04-25 15:52 | 11.48922 | 175.98418 | 39898 ft | 441 kts | 232° |
| 2026-04-25 15:53 | 11.44979 | 175.94008 | 39900 ft | 441 kts | 232° |
| 2026-04-25 15:53 | 11.41187 | 175.89771 | 39899 ft | 442 kts | 232° |
| 2026-04-25 15:54 | 11.37263 | 175.85385 | 39900 ft | 442 kts | 232° |
| 2026-04-25 15:54 | 11.33251 | 175.80904 | 39899 ft | 442 kts | 232° |
| 2026-04-25 15:55 | 11.29273 | 175.76462 | 39897 ft | 442 kts | 232° |
| 2026-04-25 15:55 | 11.25286 | 175.72014 | 39894 ft | 442 kts | 232° |
| 2026-04-25 15:56 | 11.21309 | 175.67578 | 39888 ft | 441 kts | 232° |
| 2026-04-25 15:56 | 11.17327 | 175.63136 | 39879 ft | 441 kts | 232° |
| 2026-04-25 15:57 | 11.13372 | 175.58731 | 39877 ft | 441 kts | 232° |
| 2026-04-25 15:57 | 11.09420 | 175.54326 | 39874 ft | 442 kts | 232° |
| 2026-04-25 15:58 | 11.05435 | 175.49890 | 39875 ft | 442 kts | 232° |
| 2026-04-25 15:58 | 11.01437 | 175.45441 | 39870 ft | 442 kts | 232° |
| 2026-04-25 15:59 | 10.97472 | 175.41028 | 39871 ft | 442 kts | 232° |
| 2026-04-25 15:59 | 10.93577 | 175.36697 | 39871 ft | 441 kts | 232° |
| 2026-04-25 16:00 | 10.90360 | 175.33121 | 39873 ft | 441 kts | 231° |
| 2026-04-25 16:00 | 10.85734 | 175.27982 | 39870 ft | 441 kts | 231° |
| 2026-04-25 16:01 | 10.81745 | 175.23550 | 39869 ft | 442 kts | 232° |
| 2026-04-25 16:01 | 10.77769 | 175.19138 | 39870 ft | 443 kts | 232° |
| 2026-04-25 16:02 | 10.73738 | 175.14664 | 39870 ft | 442 kts | 232° |
| 2026-04-25 16:02 | 10.69762 | 175.10252 | 39876 ft | 442 kts | 231° |
| 2026-04-25 16:03 | 10.65753 | 175.05808 | 39882 ft | 442 kts | 231° |
| 2026-04-25 16:03 | 10.61753 | 175.01373 | 39881 ft | 443 kts | 231° |
| 2026-04-25 16:04 | 10.57772 | 174.96964 | 39881 ft | 443 kts | 231° |
| 2026-04-25 16:04 | 10.53776 | 174.92539 | 39882 ft | 443 kts | 231° |
| 2026-04-25 16:05 | 10.49766 | 174.88100 | 39879 ft | 444 kts | 231° |
| 2026-04-25 16:06 | 10.43780 | 174.81476 | 39878 ft | 443 kts | 231° |
| 2026-04-25 16:06 | 10.39931 | 174.77220 | 39879 ft | 442 kts | 231° |
| 2026-04-25 16:07 | 10.36114 | 174.73003 | 39878 ft | 442 kts | 231° |
| 2026-04-25 16:07 | 10.32280 | 174.68765 | 39876 ft | 442 kts | 231° |
| 2026-04-25 16:08 | 10.28342 | 174.64415 | 39873 ft | 443 kts | 231° |
| 2026-04-25 16:08 | 10.24238 | 174.59885 | 39873 ft | 443 kts | 231° |
| 2026-04-25 16:09 | 10.20165 | 174.55389 | 39875 ft | 443 kts | 231° |
| 2026-04-25 16:09 | 10.16094 | 174.50897 | 39874 ft | 443 kts | 231° |
| 2026-04-25 16:10 | 10.12035 | 174.46422 | 39874 ft | 443 kts | 231° |
| 2026-04-25 16:10 | 10.07962 | 174.41933 | 39872 ft | 442 kts | 231° |
| 2026-04-25 16:11 | 10.03916 | 174.37474 | 39872 ft | 442 kts | 231° |
| 2026-04-25 16:11 | 9.99822 | 174.32967 | 39874 ft | 443 kts | 231° |
| 2026-04-25 16:12 | 9.95768 | 174.28503 | 39870 ft | 443 kts | 231° |
| 2026-04-25 16:12 | 9.91670 | 174.23991 | 39870 ft | 443 kts | 231° |
| 2026-04-25 16:13 | 9.87597 | 174.19513 | 39870 ft | 443 kts | 231° |
| 2026-04-25 16:13 | 9.83512 | 174.15019 | 39870 ft | 443 kts | 231° |
| 2026-04-25 16:14 | 9.79436 | 174.10539 | 39870 ft | 441 kts | 231° |
| 2026-04-25 16:14 | 9.75350 | 174.06050 | 39870 ft | 441 kts | 231° |
| 2026-04-25 16:15 | 9.71483 | 174.01802 | 39870 ft | 440 kts | 231° |
| 2026-04-25 16:15 | 9.67640 | 173.97584 | 39871 ft | 442 kts | 231° |
| 2026-04-25 16:16 | 9.63750 | 173.93314 | 39870 ft | 443 kts | 231° |
| 2026-04-25 16:16 | 9.59872 | 173.89058 | 39871 ft | 443 kts | 231° |
| 2026-04-25 16:17 | 9.56001 | 173.84811 | 39872 ft | 442 kts | 231° |
| 2026-04-25 16:17 | 9.51955 | 173.80374 | 39877 ft | 442 kts | 231° |
| 2026-04-25 16:18 | 9.47882 | 173.75911 | 39879 ft | 442 kts | 231° |
| 2026-04-25 16:18 | 9.43772 | 173.71410 | 39879 ft | 442 kts | 231° |
| 2026-04-25 16:19 | 9.39696 | 173.66945 | 39874 ft | 442 kts | 231° |
| 2026-04-25 16:19 | 9.35659 | 173.62527 | 39874 ft | 442 kts | 231° |
| 2026-04-25 16:20 | 9.29555 | 173.55847 | 39867 ft | 443 kts | 231° |
| 2026-04-25 16:21 | 9.23434 | 173.49152 | 39866 ft | 442 kts | 231° |
| 2026-04-25 16:21 | 9.19415 | 173.44760 | 39871 ft | 442 kts | 231° |
| 2026-04-25 16:22 | 9.15358 | 173.40326 | 39875 ft | 441 kts | 231° |
| 2026-04-25 16:22 | 9.11313 | 173.35908 | 39870 ft | 442 kts | 230° |
| 2026-04-25 16:23 | 9.07270 | 173.31494 | 39865 ft | 441 kts | 230° |
| 2026-04-25 16:23 | 9.03234 | 173.27087 | 39860 ft | 441 kts | 230° |
| 2026-04-25 16:24 | 8.99208 | 173.22696 | 39856 ft | 441 kts | 231° |
| 2026-04-25 16:24 | 8.95181 | 173.18303 | 39852 ft | 442 kts | 230° |
| 2026-04-25 16:25 | 8.91074 | 173.13823 | 39849 ft | 442 kts | 230° |
| 2026-04-25 16:25 | 8.86987 | 173.09367 | 39849 ft | 442 kts | 230° |
| 2026-04-25 16:26 | 8.82889 | 173.04903 | 39848 ft | 442 kts | 230° |
| 2026-04-25 16:26 | 8.78774 | 173.00420 | 39847 ft | 442 kts | 230° |
| 2026-04-25 16:27 | 8.74685 | 172.95967 | 39848 ft | 442 kts | 230° |
| 2026-04-25 16:27 | 8.70662 | 172.91589 | 39846 ft | 442 kts | 230° |
| 2026-04-25 16:28 | 8.66797 | 172.87384 | 39848 ft | 442 kts | 230° |
| 2026-04-25 16:28 | 8.62972 | 172.83225 | 39846 ft | 442 kts | 230° |
| 2026-04-25 16:29 | 8.59115 | 172.79028 | 39845 ft | 442 kts | 230° |
| 2026-04-25 16:29 | 8.55148 | 172.74718 | 39847 ft | 443 kts | 230° |
| 2026-04-25 16:30 | 8.51167 | 172.70389 | 39849 ft | 443 kts | 230° |
| 2026-04-25 16:30 | 8.47211 | 172.66092 | 39847 ft | 444 kts | 230° |
| 2026-04-25 16:31 | 8.43231 | 172.61771 | 39850 ft | 443 kts | 230° |
| 2026-04-25 16:31 | 8.39261 | 172.57459 | 39853 ft | 444 kts | 230° |
| 2026-04-25 16:32 | 8.35335 | 172.53198 | 39855 ft | 444 kts | 230° |
| 2026-04-25 16:32 | 8.31320 | 172.48843 | 39855 ft | 444 kts | 230° |
| 2026-04-25 16:33 | 8.27112 | 172.44279 | 39851 ft | 444 kts | 230° |
| 2026-04-25 16:33 | 8.22718 | 172.39516 | 39851 ft | 444 kts | 230° |
| 2026-04-25 16:34 | 8.18427 | 172.34863 | 39849 ft | 444 kts | 230° |
| 2026-04-25 16:34 | 8.14316 | 172.30409 | 39850 ft | 445 kts | 230° |
| 2026-04-25 16:35 | 8.10440 | 172.26210 | 39850 ft | 445 kts | 230° |
| 2026-04-25 16:35 | 8.06227 | 172.21648 | 39850 ft | 445 kts | 229° |
| 2026-04-25 16:36 | 8.02017 | 172.17091 | 39851 ft | 445 kts | 229° |
| 2026-04-25 16:36 | 7.97780 | 172.12508 | 39853 ft | 445 kts | 229° |
| 2026-04-25 16:37 | 7.93548 | 172.07928 | 39852 ft | 446 kts | 229° |
| 2026-04-25 16:37 | 7.89336 | 172.03372 | 39851 ft | 446 kts | 229° |
| 2026-04-25 16:38 | 7.85182 | 171.98883 | 39849 ft | 446 kts | 229° |
| 2026-04-25 16:38 | 7.81300 | 171.94685 | 39847 ft | 447 kts | 229° |
| 2026-04-25 16:39 | 7.77406 | 171.90480 | 39847 ft | 447 kts | 229° |
| 2026-04-25 16:39 | 7.73542 | 171.86307 | 39846 ft | 447 kts | 229° |
| 2026-04-25 16:40 | 7.69656 | 171.82109 | 39841 ft | 448 kts | 229° |
| 2026-04-25 16:40 | 7.65767 | 171.77911 | 39842 ft | 449 kts | 229° |
| 2026-04-25 16:41 | 7.61849 | 171.73683 | 39843 ft | 448 kts | 229° |
| 2026-04-25 16:41 | 7.55766 | 171.67119 | 39839 ft | 449 kts | 229° |
| 2026-04-25 16:42 | 7.51602 | 171.62631 | 39841 ft | 449 kts | 229° |
| 2026-04-25 16:42 | 7.47599 | 171.58316 | 39840 ft | 450 kts | 228° |
| 2026-04-25 16:43 | 7.43562 | 171.53966 | 39841 ft | 449 kts | 228° |
| 2026-04-25 16:43 | 7.39552 | 171.49644 | 39841 ft | 450 kts | 228° |
| 2026-04-25 16:44 | 7.35516 | 171.45297 | 39839 ft | 450 kts | 228° |
| 2026-04-25 16:44 | 7.31473 | 171.40942 | 39835 ft | 451 kts | 228° |
| 2026-04-25 16:45 | 7.27507 | 171.36675 | 39833 ft | 451 kts | 228° |
| 2026-04-25 16:45 | 7.23563 | 171.32430 | 39834 ft | 451 kts | 228° |
| 2026-04-25 16:46 | 7.19632 | 171.28200 | 39833 ft | 451 kts | 228° |
| 2026-04-25 16:46 | 7.16344 | 171.24663 | 39832 ft | 451 kts | 227° |
| 2026-04-25 16:47 | 7.11652 | 171.19618 | 39832 ft | 452 kts | 227° |
| 2026-04-25 16:47 | 7.07561 | 171.15221 | 39831 ft | 452 kts | 227° |
| 2026-04-25 16:48 | 7.03495 | 171.10849 | 39828 ft | 453 kts | 227° |
| 2026-04-25 16:48 | 6.99392 | 171.06442 | 39828 ft | 453 kts | 227° |
| 2026-04-25 16:49 | 6.95292 | 171.02039 | 39830 ft | 453 kts | 227° |
| 2026-04-25 16:49 | 6.91201 | 170.97644 | 39831 ft | 453 kts | 227° |
| 2026-04-25 16:50 | 6.87045 | 170.93182 | 39830 ft | 454 kts | 227° |
| 2026-04-25 16:50 | 6.82959 | 170.88798 | 39831 ft | 454 kts | 227° |
| 2026-04-25 16:51 | 6.78850 | 170.84390 | 39833 ft | 454 kts | 227° |
| 2026-04-25 16:51 | 6.75450 | 170.80742 | 39831 ft | 454 kts | 227° |
| 2026-04-25 16:52 | 6.70718 | 170.75667 | 39830 ft | 455 kts | 227° |
| 2026-04-25 16:52 | 6.66628 | 170.71281 | 39829 ft | 455 kts | 227° |
| 2026-04-25 16:53 | 6.60483 | 170.64697 | 39828 ft | 456 kts | 227° |
| 2026-04-25 16:54 | 6.56397 | 170.60316 | 39829 ft | 457 kts | 227° |
| 2026-04-25 16:54 | 6.52321 | 170.55951 | 39829 ft | 457 kts | 227° |
| 2026-04-25 16:55 | 6.48194 | 170.51531 | 39830 ft | 458 kts | 227° |
| 2026-04-25 16:55 | 6.44092 | 170.47137 | 39829 ft | 458 kts | 226° |
| 2026-04-25 16:56 | 6.39999 | 170.42758 | 39828 ft | 458 kts | 226° |
| 2026-04-25 16:56 | 6.35856 | 170.38324 | 39829 ft | 458 kts | 226° |
| 2026-04-25 16:57 | 6.31733 | 170.33914 | 39828 ft | 459 kts | 226° |
| 2026-04-25 16:57 | 6.27600 | 170.29492 | 39830 ft | 460 kts | 226° |
| 2026-04-25 16:58 | 6.23472 | 170.25078 | 39827 ft | 460 kts | 226° |
| 2026-04-25 16:58 | 6.19367 | 170.20689 | 39827 ft | 461 kts | 226° |
| 2026-04-25 16:59 | 6.15270 | 170.16309 | 39830 ft | 463 kts | 226° |
| 2026-04-25 16:59 | 6.11175 | 170.11931 | 39826 ft | 461 kts | 226° |
| 2026-04-25 17:00 | 6.07142 | 170.07620 | 39827 ft | 463 kts | 226° |
| 2026-04-25 17:00 | 6.03126 | 170.03328 | 39827 ft | 463 kts | 226° |
| 2026-04-25 17:01 | 5.99160 | 169.98914 | 39827 ft | 463 kts | 230° |
| 2026-04-25 17:01 | 5.95437 | 169.94240 | 39817 ft | 464 kts | 231° |
| 2026-04-25 17:02 | 5.91730 | 169.89537 | 39817 ft | 465 kts | 231° |
| 2026-04-25 17:02 | 5.88025 | 169.84833 | 39811 ft | 464 kts | 231° |
| 2026-04-25 17:03 | 5.84314 | 169.80133 | 39814 ft | 465 kts | 231° |
| 2026-04-25 17:03 | 5.80560 | 169.75375 | 39814 ft | 464 kts | 231° |
| 2026-04-25 17:04 | 5.76708 | 169.70497 | 39818 ft | 464 kts | 232° |
| 2026-04-25 17:04 | 5.72826 | 169.65581 | 39815 ft | 464 kts | 232° |
| 2026-04-25 17:05 | 5.68927 | 169.60646 | 39820 ft | 465 kts | 231° |
| 2026-04-25 17:05 | 5.63088 | 169.53253 | 39825 ft | 465 kts | 232° |
| 2026-04-25 17:06 | 5.59253 | 169.48401 | 39825 ft | 464 kts | 232° |
| 2026-04-25 17:06 | 5.55502 | 169.43657 | 39824 ft | 465 kts | 232° |
| 2026-04-25 17:07 | 5.51799 | 169.38976 | 39824 ft | 465 kts | 232° |
| 2026-04-25 17:07 | 5.47973 | 169.34139 | 39828 ft | 465 kts | 232° |
| 2026-04-25 17:08 | 5.44141 | 169.29294 | 39826 ft | 465 kts | 232° |
| 2026-04-25 17:08 | 5.40326 | 169.24474 | 39822 ft | 464 kts | 232° |
| 2026-04-25 17:09 | 5.36433 | 169.19550 | 39821 ft | 465 kts | 232° |
| 2026-04-25 17:09 | 5.32525 | 169.14616 | 39818 ft | 465 kts | 232° |
| 2026-04-25 17:10 | 5.28751 | 169.09853 | 39811 ft | 465 kts | 232° |
| 2026-04-25 17:10 | 5.24973 | 169.05077 | 39812 ft | 465 kts | 232° |
| 2026-04-25 17:11 | 5.21058 | 169.00136 | 39811 ft | 465 kts | 232° |
| 2026-04-25 17:11 | 5.17218 | 168.95290 | 39813 ft | 465 kts | 232° |
| 2026-04-25 17:12 | 5.13388 | 168.90459 | 39811 ft | 465 kts | 232° |
| 2026-04-25 17:12 | 5.09541 | 168.85605 | 39810 ft | 466 kts | 232° |
| 2026-04-25 17:13 | 5.06336 | 168.81561 | 39812 ft | 466 kts | 232° |
| 2026-04-25 17:13 | 5.01935 | 168.76012 | 39804 ft | 465 kts | 232° |
| 2026-04-25 17:14 | 4.98075 | 168.71143 | 39809 ft | 466 kts | 232° |
| 2026-04-25 17:14 | 4.94282 | 168.66362 | 39806 ft | 466 kts | 232° |
| 2026-04-25 17:15 | 4.90579 | 168.61697 | 39810 ft | 467 kts | 232° |
| 2026-04-25 17:15 | 4.86864 | 168.57016 | 39806 ft | 468 kts | 232° |
| 2026-04-25 17:16 | 4.82856 | 168.51968 | 39805 ft | 468 kts | 232° |
| 2026-04-25 17:16 | 4.78868 | 168.46947 | 39806 ft | 468 kts | 232° |
| 2026-04-25 17:17 | 4.74841 | 168.41876 | 39807 ft | 468 kts | 232° |
| 2026-04-25 17:17 | 4.70838 | 168.36838 | 39808 ft | 468 kts | 232° |
| 2026-04-25 17:18 | 4.67006 | 168.32013 | 39814 ft | 468 kts | 232° |
| 2026-04-25 17:18 | 4.63298 | 168.27347 | 39818 ft | 470 kts | 232° |
| 2026-04-25 17:19 | 4.59525 | 168.22601 | 39820 ft | 470 kts | 232° |
| 2026-04-25 17:19 | 4.55675 | 168.17760 | 39820 ft | 470 kts | 232° |
| 2026-04-25 17:20 | 4.51732 | 168.12799 | 39817 ft | 470 kts | 232° |
| 2026-04-25 17:20 | 4.47806 | 168.07863 | 39816 ft | 470 kts | 232° |
| 2026-04-25 17:21 | 4.43907 | 168.02960 | 39829 ft | 470 kts | 232° |
| 2026-04-25 17:21 | 4.40186 | 167.98285 | 39834 ft | 469 kts | 232° |
| 2026-04-25 17:22 | 4.37036 | 167.94328 | 39834 ft | 470 kts | 232° |
| 2026-04-25 17:22 | 4.32446 | 167.88562 | 39828 ft | 471 kts | 232° |
| 2026-04-25 17:23 | 4.28510 | 167.83618 | 39831 ft | 472 kts | 232° |
| 2026-04-25 17:23 | 4.24648 | 167.78767 | 39833 ft | 472 kts | 232° |
| 2026-04-25 17:24 | 4.20828 | 167.73970 | 39830 ft | 472 kts | 232° |
| 2026-04-25 17:24 | 4.16907 | 167.69045 | 39829 ft | 472 kts | 232° |
| 2026-04-25 17:25 | 4.13021 | 167.64166 | 39830 ft | 472 kts | 232° |
| 2026-04-25 17:25 | 4.09227 | 167.59405 | 39830 ft | 471 kts | 232° |
| 2026-04-25 17:26 | 4.05398 | 167.54601 | 39831 ft | 471 kts | 231° |
| 2026-04-25 17:26 | 4.01622 | 167.49860 | 39829 ft | 472 kts | 231° |
| 2026-04-25 17:27 | 3.97747 | 167.45003 | 39829 ft | 472 kts | 231° |
| 2026-04-25 17:27 | 3.94596 | 167.41048 | 39829 ft | 473 kts | 231° |
| 2026-04-25 17:28 | 3.90057 | 167.35358 | 39828 ft | 473 kts | 231° |
| 2026-04-25 17:28 | 3.86180 | 167.30498 | 39828 ft | 471 kts | 231° |
| 2026-04-25 17:29 | 3.82346 | 167.25690 | 39828 ft | 472 kts | 231° |
| 2026-04-25 17:29 | 3.78524 | 167.20898 | 39828 ft | 473 kts | 231° |
| 2026-04-25 17:30 | 3.74683 | 167.16087 | 39828 ft | 475 kts | 231° |
| 2026-04-25 17:30 | 3.70802 | 167.11223 | 39828 ft | 476 kts | 231° |
| 2026-04-25 17:31 | 3.66937 | 167.06381 | 39829 ft | 477 kts | 231° |
| 2026-04-25 17:31 | 3.63012 | 167.01463 | 39829 ft | 476 kts | 231° |
| 2026-04-25 17:32 | 3.59027 | 166.96474 | 39828 ft | 474 kts | 231° |
| 2026-04-25 17:32 | 3.55179 | 166.91660 | 39828 ft | 471 kts | 231° |
| 2026-04-25 17:33 | 3.51421 | 166.86955 | 39828 ft | 471 kts | 232° |
| 2026-04-25 17:33 | 3.47621 | 166.82198 | 39828 ft | 472 kts | 232° |
| 2026-04-25 17:34 | 3.43828 | 166.77447 | 39828 ft | 474 kts | 232° |
| 2026-04-25 17:34 | 3.40022 | 166.72682 | 39828 ft | 477 kts | 232° |
| 2026-04-25 17:35 | 3.36149 | 166.67835 | 39828 ft | 478 kts | 232° |
| 2026-04-25 17:35 | 3.32274 | 166.62987 | 39828 ft | 478 kts | 232° |
| 2026-04-25 17:36 | 3.28434 | 166.58183 | 39826 ft | 477 kts | 232° |
| 2026-04-25 17:36 | 3.24575 | 166.53355 | 39823 ft | 475 kts | 232° |
| 2026-04-25 17:37 | 3.20728 | 166.48544 | 39818 ft | 475 kts | 232° |
| 2026-04-25 17:37 | 3.16884 | 166.43736 | 39813 ft | 476 kts | 232° |
| 2026-04-25 17:38 | 3.13698 | 166.39751 | 39811 ft | 476 kts | 232° |
| 2026-04-25 17:38 | 3.09204 | 166.34132 | 39810 ft | 478 kts | 232° |
| 2026-04-25 17:39 | 3.05336 | 166.29297 | 39809 ft | 479 kts | 232° |
| 2026-04-25 17:39 | 3.01501 | 166.24506 | 39808 ft | 479 kts | 232° |
| 2026-04-25 17:40 | 2.97629 | 166.19669 | 39809 ft | 479 kts | 232° |
| 2026-04-25 17:40 | 2.93797 | 166.14882 | 39808 ft | 478 kts | 232° |
| 2026-04-25 17:41 | 2.89926 | 166.10043 | 39812 ft | 478 kts | 232° |
| 2026-04-25 17:41 | 2.85989 | 166.05122 | 39811 ft | 477 kts | 232° |
| 2026-04-25 17:42 | 2.82013 | 166.00156 | 39812 ft | 477 kts | 232° |
| 2026-04-25 17:42 | 2.77937 | 165.95067 | 39814 ft | 478 kts | 231° |
| 2026-04-25 17:43 | 2.73903 | 165.90027 | 39814 ft | 478 kts | 232° |
| 2026-04-25 17:43 | 2.69916 | 165.85053 | 39816 ft | 478 kts | 232° |
| 2026-04-25 17:44 | 2.65891 | 165.80028 | 39817 ft | 479 kts | 232° |
| 2026-04-25 17:44 | 2.62046 | 165.75227 | 39818 ft | 479 kts | 232° |
| 2026-04-25 17:45 | 2.58890 | 165.71286 | 39820 ft | 479 kts | 232° |
| 2026-04-25 17:45 | 2.54412 | 165.65697 | 39820 ft | 478 kts | 232° |
| 2026-04-25 17:46 | 2.50566 | 165.60898 | 39822 ft | 478 kts | 232° |
| 2026-04-25 17:46 | 2.46687 | 165.56059 | 39822 ft | 477 kts | 232° |
| 2026-04-25 17:47 | 2.42816 | 165.51230 | 39823 ft | 477 kts | 232° |
| 2026-04-25 17:47 | 2.38909 | 165.46355 | 39825 ft | 477 kts | 232° |
| 2026-04-25 17:48 | 2.32884 | 165.38838 | 39826 ft | 477 kts | 232° |
| 2026-04-25 17:49 | 2.28827 | 165.33775 | 39826 ft | 477 kts | 231° |
| 2026-04-25 17:49 | 2.24959 | 165.28952 | 39827 ft | 478 kts | 231° |
| 2026-04-25 17:50 | 2.21049 | 165.24075 | 39827 ft | 478 kts | 231° |
| 2026-04-25 17:50 | 2.16995 | 165.19022 | 39828 ft | 476 kts | 231° |
| 2026-04-25 17:51 | 2.13238 | 165.14339 | 39829 ft | 476 kts | 231° |
| 2026-04-25 17:51 | 2.09501 | 165.09683 | 39828 ft | 475 kts | 231° |
| 2026-04-25 17:52 | 2.05672 | 165.04912 | 39828 ft | 475 kts | 231° |
| 2026-04-25 17:52 | 2.01758 | 165.00032 | 39829 ft | 475 kts | 231° |
| 2026-04-25 17:53 | 1.97772 | 164.95062 | 39827 ft | 479 kts | 231° |
| 2026-04-25 17:53 | 1.93762 | 164.90063 | 39818 ft | 483 kts | 231° |
| 2026-04-25 17:54 | 1.89733 | 164.85040 | 39815 ft | 484 kts | 231° |
| 2026-04-25 17:54 | 1.85671 | 164.79977 | 39815 ft | 484 kts | 231° |
| 2026-04-25 17:55 | 1.81568 | 164.74867 | 39817 ft | 484 kts | 231° |
| 2026-04-25 17:55 | 1.77432 | 164.69720 | 39817 ft | 482 kts | 231° |
| 2026-04-25 17:56 | 1.73306 | 164.64583 | 39817 ft | 482 kts | 231° |
| 2026-04-25 17:56 | 1.69205 | 164.59474 | 39821 ft | 483 kts | 232° |
| 2026-04-25 17:57 | 1.65058 | 164.54305 | 39821 ft | 485 kts | 231° |
| 2026-04-25 17:57 | 1.60933 | 164.49164 | 39821 ft | 485 kts | 231° |
| 2026-04-25 17:58 | 1.56807 | 164.44026 | 39823 ft | 486 kts | 231° |
| 2026-04-25 17:58 | 1.52619 | 164.38814 | 39825 ft | 487 kts | 231° |
| 2026-04-25 17:59 | 1.48503 | 164.33690 | 39825 ft | 487 kts | 232° |
| 2026-04-25 17:59 | 1.44445 | 164.28638 | 39823 ft | 486 kts | 232° |
| 2026-04-25 18:00 | 1.40361 | 164.23552 | 39818 ft | 485 kts | 232° |
| 2026-04-25 18:00 | 1.36201 | 164.18370 | 39816 ft | 485 kts | 231° |
| 2026-04-25 18:01 | 1.32028 | 164.13176 | 39814 ft | 486 kts | 231° |
| 2026-04-25 18:01 | 1.27942 | 164.08090 | 39820 ft | 486 kts | 231° |
| 2026-04-25 18:02 | 1.23934 | 164.03102 | 39826 ft | 487 kts | 231° |
| 2026-04-25 18:02 | 1.19871 | 163.98045 | 39828 ft | 486 kts | 232° |
| 2026-04-25 18:03 | 1.15795 | 163.92973 | 39831 ft | 485 kts | 231° |
| 2026-04-25 18:03 | 1.11766 | 163.87959 | 39832 ft | 484 kts | 232° |
| 2026-04-25 18:04 | 1.07906 | 163.83154 | 39832 ft | 484 kts | 232° |
| 2026-04-25 18:04 | 1.03982 | 163.78271 | 39835 ft | 484 kts | 232° |
| 2026-04-25 18:05 | 0.99867 | 163.73151 | 39838 ft | 484 kts | 232° |
| 2026-04-25 18:05 | 0.95890 | 163.68202 | 39834 ft | 484 kts | 232° |
| 2026-04-25 18:06 | 0.91919 | 163.63261 | 39839 ft | 484 kts | 231° |
| 2026-04-25 18:06 | 0.87964 | 163.58340 | 39835 ft | 485 kts | 232° |
| 2026-04-25 18:07 | 0.84027 | 163.53442 | 39834 ft | 486 kts | 232° |
| 2026-04-25 18:07 | 0.80080 | 163.48532 | 39830 ft | 487 kts | 232° |
| 2026-04-25 18:08 | 0.76080 | 163.43555 | 39830 ft | 487 kts | 231° |
| 2026-04-25 18:08 | 0.72091 | 163.38592 | 39831 ft | 487 kts | 232° |
| 2026-04-25 18:09 | 0.68093 | 163.33620 | 39830 ft | 487 kts | 231° |
| 2026-04-25 18:09 | 0.64163 | 163.28731 | 39830 ft | 486 kts | 231° |
| 2026-04-25 18:10 | 0.60246 | 163.23859 | 39830 ft | 486 kts | 232° |
| 2026-04-25 18:10 | 0.56301 | 163.18953 | 39829 ft | 486 kts | 232° |
| 2026-04-25 18:11 | 0.52341 | 163.14026 | 39828 ft | 487 kts | 231° |
| 2026-04-25 18:11 | 0.48413 | 163.09139 | 39829 ft | 488 kts | 231° |
| 2026-04-25 18:12 | 0.44582 | 163.04375 | 39829 ft | 488 kts | 231° |
| 2026-04-25 18:12 | 0.40716 | 162.99567 | 39829 ft | 488 kts | 231° |
| 2026-04-25 18:13 | 0.36843 | 162.94750 | 39829 ft | 488 kts | 231° |
| 2026-04-25 18:13 | 0.32806 | 162.89728 | 39829 ft | 487 kts | 231° |
| 2026-04-25 18:14 | 0.26748 | 162.82193 | 39829 ft | 488 kts | 231° |
| 2026-04-25 18:14 | 0.22698 | 162.77158 | 39829 ft | 487 kts | 231° |
| 2026-04-25 18:15 | 0.18660 | 162.72136 | 39829 ft | 488 kts | 231° |
| 2026-04-25 18:15 | 0.14617 | 162.67107 | 39829 ft | 490 kts | 231° |
| 2026-04-25 18:16 | 0.10553 | 162.62053 | 39829 ft | 490 kts | 231° |
| 2026-04-25 18:17 | 0.04348 | 162.54335 | 39829 ft | 490 kts | 231° |
| 2026-04-25 18:17 | 0.00123 | 162.49081 | 39827 ft | 489 kts | 231° |
| 2026-04-25 18:18 | -0.04075 | 162.43858 | 39821 ft | 489 kts | 231° |
| 2026-04-25 18:18 | -0.08179 | 162.38757 | 39825 ft | 490 kts | 231° |
| 2026-04-25 18:19 | -0.12160 | 162.33807 | 39828 ft | 490 kts | 232° |
| 2026-04-25 18:19 | -0.16140 | 162.28859 | 39828 ft | 491 kts | 232° |
| 2026-04-25 18:20 | -0.20245 | 162.23750 | 39829 ft | 491 kts | 232° |
| 2026-04-25 18:20 | -0.24323 | 162.18678 | 39829 ft | 491 kts | 232° |
| 2026-04-25 18:21 | -0.28474 | 162.13515 | 39824 ft | 491 kts | 232° |
| 2026-04-25 18:21 | -0.32593 | 162.08392 | 39825 ft | 491 kts | 232° |
| 2026-04-25 18:22 | -0.36675 | 162.03317 | 39827 ft | 491 kts | 232° |
| 2026-04-25 18:22 | -0.40751 | 161.98248 | 39824 ft | 491 kts | 232° |
| 2026-04-25 18:23 | -0.44771 | 161.93247 | 39825 ft | 491 kts | 232° |
| 2026-04-25 18:23 | -0.48868 | 161.88150 | 39827 ft | 492 kts | 232° |
| 2026-04-25 18:24 | -0.53055 | 161.82942 | 39831 ft | 493 kts | 232° |
| 2026-04-25 18:24 | -0.57166 | 161.77829 | 39826 ft | 493 kts | 232° |
| 2026-04-25 18:25 | -0.61293 | 161.72697 | 39828 ft | 492 kts | 232° |
| 2026-04-25 18:25 | -0.65473 | 161.67500 | 39831 ft | 492 kts | 232° |
| 2026-04-25 18:26 | -0.69692 | 161.62251 | 39829 ft | 492 kts | 232° |
| 2026-04-25 18:26 | -0.73929 | 161.56981 | 39831 ft | 491 kts | 232° |
| 2026-04-25 18:27 | -0.78077 | 161.51822 | 39830 ft | 492 kts | 232° |
| 2026-04-25 18:27 | -0.82199 | 161.46693 | 39830 ft | 493 kts | 232° |
| 2026-04-25 18:28 | -0.86319 | 161.41566 | 39828 ft | 493 kts | 232° |
| 2026-04-25 18:28 | -0.90378 | 161.36517 | 39830 ft | 492 kts | 232° |
| 2026-04-25 18:29 | -0.96534 | 161.28856 | 39830 ft | 492 kts | 232° |
| 2026-04-25 18:30 | -1.04928 | 161.18411 | 39828 ft | 492 kts | 232° |
| 2026-04-25 18:30 | -1.09038 | 161.13298 | 39829 ft | 493 kts | 232° |
| 2026-04-25 18:31 | -1.13132 | 161.08203 | 39829 ft | 493 kts | 232° |
| 2026-04-25 18:31 | -1.17254 | 161.03073 | 39829 ft | 493 kts | 232° |
| 2026-04-25 18:32 | -1.21345 | 160.97980 | 39829 ft | 493 kts | 232° |
| 2026-04-25 18:32 | -1.25347 | 160.92998 | 39830 ft | 493 kts | 232° |
| 2026-04-25 18:33 | -1.29332 | 160.88037 | 39830 ft | 493 kts | 232° |
| 2026-04-25 18:33 | -1.33390 | 160.82987 | 39831 ft | 493 kts | 232° |
| 2026-04-25 18:34 | -1.37549 | 160.77811 | 39831 ft | 494 kts | 232° |
| 2026-04-25 18:34 | -1.41696 | 160.72646 | 39831 ft | 495 kts | 232° |
| 2026-04-25 18:35 | -1.45843 | 160.67482 | 39831 ft | 494 kts | 232° |
| 2026-04-25 18:35 | -1.49989 | 160.62320 | 39833 ft | 494 kts | 232° |
| 2026-04-25 18:36 | -1.54118 | 160.57178 | 39832 ft | 494 kts | 232° |
| 2026-04-25 18:36 | -1.58256 | 160.52023 | 39833 ft | 495 kts | 232° |
| 2026-04-25 18:37 | -1.62383 | 160.46884 | 39834 ft | 495 kts | 232° |
| 2026-04-25 18:37 | -1.66564 | 160.41676 | 39832 ft | 496 kts | 232° |
| 2026-04-25 18:38 | -1.70722 | 160.36497 | 39831 ft | 496 kts | 232° |
| 2026-04-25 18:38 | -1.74862 | 160.31339 | 39831 ft | 496 kts | 232° |
| 2026-04-25 18:39 | -1.78924 | 160.26276 | 39833 ft | 496 kts | 232° |
| 2026-04-25 18:39 | -1.82971 | 160.21231 | 39832 ft | 495 kts | 232° |
| 2026-04-25 18:40 | -1.87050 | 160.16144 | 39835 ft | 494 kts | 232° |
| 2026-04-25 18:40 | -1.91204 | 160.10965 | 39842 ft | 494 kts | 232° |
| 2026-04-25 18:41 | -1.95760 | 160.06126 | 39844 ft | 496 kts | 219° |
| 2026-04-25 18:41 | -2.01535 | 160.02919 | 39847 ft | 499 kts | 200° |
| 2026-04-25 18:42 | -2.07038 | 160.01739 | 39848 ft | 500 kts | 184° |
| 2026-04-25 18:42 | -2.11605 | 160.01895 | 39848 ft | 499 kts | 171° |
| 2026-04-25 18:42 | -2.14920 | 160.02446 | 39852 ft | 499 kts | 169° |
| 2026-04-25 18:43 | -2.21600 | 160.03691 | 39850 ft | 499 kts | 169° |
| 2026-04-25 18:43 | -2.28244 | 160.04913 | 39849 ft | 498 kts | 169° |
| 2026-04-25 18:44 | -2.34910 | 160.06107 | 39848 ft | 499 kts | 169° |
| 2026-04-25 18:44 | -2.41599 | 160.07292 | 39847 ft | 500 kts | 169° |
| 2026-04-25 18:45 | -2.48280 | 160.08472 | 39847 ft | 501 kts | 169° |
| 2026-04-25 18:45 | -2.55030 | 160.09663 | 39848 ft | 500 kts | 169° |
| 2026-04-25 18:46 | -2.61673 | 160.10835 | 39848 ft | 499 kts | 169° |
| 2026-04-25 18:46 | -2.68322 | 160.12007 | 39848 ft | 500 kts | 169° |
| 2026-04-25 18:47 | -2.74988 | 160.13182 | 39848 ft | 500 kts | 169° |
| 2026-04-25 18:47 | -2.81693 | 160.14366 | 39848 ft | 501 kts | 169° |
| 2026-04-25 18:48 | -2.88429 | 160.15556 | 39848 ft | 502 kts | 169° |
| 2026-04-25 18:48 | -2.95137 | 160.16739 | 39847 ft | 501 kts | 169° |
| 2026-04-25 18:49 | -3.01796 | 160.17915 | 39845 ft | 501 kts | 169° |
| 2026-04-25 18:49 | -3.08518 | 160.19102 | 39836 ft | 500 kts | 169° |
| 2026-04-25 18:50 | -3.15225 | 160.20287 | 39829 ft | 501 kts | 169° |
| 2026-04-25 18:50 | -3.21927 | 160.21469 | 39829 ft | 501 kts | 169° |
| 2026-04-25 18:51 | -3.27520 | 160.22456 | 39829 ft | 501 kts | 169° |
| 2026-04-25 18:51 | -3.35515 | 160.23869 | 39829 ft | 501 kts | 169° |
| 2026-04-25 18:52 | -3.42377 | 160.25082 | 39829 ft | 501 kts | 170° |
| 2026-04-25 18:52 | -3.49157 | 160.26280 | 39829 ft | 500 kts | 170° |
| 2026-04-25 18:53 | -3.56046 | 160.27496 | 39829 ft | 500 kts | 170° |
| 2026-04-25 18:53 | -3.63002 | 160.28726 | 39829 ft | 501 kts | 170° |
| 2026-04-25 18:54 | -3.73347 | 160.30556 | 39829 ft | 500 kts | 170° |
| 2026-04-25 18:55 | -3.80167 | 160.31761 | 39829 ft | 499 kts | 170° |
| 2026-04-25 18:55 | -3.87031 | 160.32976 | 39828 ft | 500 kts | 170° |
| 2026-04-25 18:56 | -3.93823 | 160.34177 | 39829 ft | 500 kts | 170° |
| 2026-04-25 18:56 | -4.00696 | 160.35393 | 39829 ft | 500 kts | 170° |
| 2026-04-25 18:57 | -4.07469 | 160.36589 | 39829 ft | 500 kts | 170° |
| 2026-04-25 18:57 | -4.14211 | 160.37782 | 39828 ft | 487 kts | 170° |
| 2026-04-25 18:58 | -4.20823 | 160.38954 | 39829 ft | 484 kts | 170° |
| 2026-04-25 18:58 | -4.30738 | 160.40710 | 39828 ft | 484 kts | 170° |
| 2026-04-25 18:59 | -4.44041 | 160.43065 | 39828 ft | 484 kts | 170° |
| 2026-04-25 19:00 | -4.54134 | 160.44853 | 39833 ft | 484 kts | 170° |
| 2026-04-25 19:01 | -4.64229 | 160.46643 | 39843 ft | 483 kts | 170° |
| 2026-04-25 19:01 | -4.70948 | 160.47833 | 39845 ft | 483 kts | 170° |
| 2026-04-25 19:02 | -4.81030 | 160.49622 | 39848 ft | 483 kts | 170° |
| 2026-04-25 19:03 | -4.89960 | 160.51205 | 39849 ft | 483 kts | 170° |
| 2026-04-25 19:03 | -4.97806 | 160.52597 | 39849 ft | 483 kts | 170° |
| 2026-04-25 19:04 | -5.07922 | 160.54391 | 39850 ft | 482 kts | 170° |
| 2026-04-25 19:05 | -5.21226 | 160.56752 | 39849 ft | 483 kts | 170° |
| 2026-04-25 19:06 | -5.27930 | 160.57942 | 39849 ft | 484 kts | 170° |
| 2026-04-25 19:06 | -5.38278 | 160.59781 | 39837 ft | 483 kts | 170° |
| 2026-04-25 19:07 | -5.48325 | 160.61565 | 39828 ft | 484 kts | 170° |
| 2026-04-25 19:08 | -5.57936 | 160.63272 | 39829 ft | 484 kts | 170° |
| 2026-04-25 19:09 | -5.70334 | 160.65477 | 39829 ft | 484 kts | 170° |
| 2026-04-25 19:10 | -5.81546 | 160.67471 | 39829 ft | 484 kts | 170° |
| 2026-04-25 19:10 | -5.88369 | 160.68686 | 39829 ft | 484 kts | 170° |
| 2026-04-25 19:11 | -5.95393 | 160.69936 | 39829 ft | 484 kts | 171° |
| 2026-04-25 19:11 | -6.02180 | 160.71144 | 39830 ft | 484 kts | 171° |
| 2026-04-25 19:12 | -6.08885 | 160.72337 | 39831 ft | 484 kts | 171° |
| 2026-04-25 19:12 | -6.15595 | 160.73534 | 39829 ft | 484 kts | 171° |
| 2026-04-25 19:13 | -6.22262 | 160.74721 | 39829 ft | 483 kts | 171° |
| 2026-04-25 19:13 | -6.28943 | 160.75911 | 39832 ft | 483 kts | 171° |
| 2026-04-25 19:14 | -6.35572 | 160.77094 | 39838 ft | 483 kts | 171° |
| 2026-04-25 19:14 | -6.42234 | 160.78281 | 39845 ft | 483 kts | 171° |
| 2026-04-25 19:15 | -6.48934 | 160.79475 | 39851 ft | 483 kts | 171° |
| 2026-04-25 19:15 | -6.55556 | 160.80656 | 39851 ft | 483 kts | 171° |
| 2026-04-25 19:16 | -6.62269 | 160.81856 | 39849 ft | 482 kts | 171° |
| 2026-04-25 19:16 | -6.68916 | 160.83041 | 39855 ft | 482 kts | 171° |
| 2026-04-25 19:17 | -6.75542 | 160.84224 | 39851 ft | 482 kts | 171° |
| 2026-04-25 19:17 | -6.82071 | 160.85390 | 39851 ft | 482 kts | 171° |
| 2026-04-25 19:17 | -6.85383 | 160.85980 | 39553 ft | 483 kts | 171° |
| 2026-04-25 19:18 | -6.88704 | 160.86574 | 39224 ft | 479 kts | 171° |
| 2026-04-25 19:18 | -6.91978 | 160.87158 | 38894 ft | 475 kts | 171° |
| 2026-04-25 19:18 | -6.95254 | 160.87746 | 38567 ft | 472 kts | 171° |
| 2026-04-25 19:18 | -6.98525 | 160.88330 | 38266 ft | 471 kts | 171° |
| 2026-04-25 19:19 | -7.01870 | 160.88928 | 37962 ft | 470 kts | 171° |
| 2026-04-25 19:19 | -7.05197 | 160.89523 | 37652 ft | 470 kts | 171° |
| 2026-04-25 19:19 | -7.08493 | 160.90112 | 37344 ft | 470 kts | 171° |
| 2026-04-25 19:19 | -7.10651 | 160.90497 | 37147 ft | 469 kts | 171° |
| 2026-04-25 19:20 | -7.14918 | 160.91260 | 36754 ft | 469 kts | 171° |
| 2026-04-25 19:20 | -7.18219 | 160.91850 | 36449 ft | 469 kts | 171° |
| 2026-04-25 19:20 | -7.21471 | 160.92432 | 36152 ft | 470 kts | 171° |
| 2026-04-25 19:20 | -7.24714 | 160.93012 | 35857 ft | 470 kts | 171° |
| 2026-04-25 19:21 | -7.27943 | 160.93590 | 35561 ft | 470 kts | 171° |
| 2026-04-25 19:21 | -7.34368 | 160.94740 | 34978 ft | 469 kts | 171° |
| 2026-04-25 19:21 | -7.37622 | 160.95323 | 34685 ft | 469 kts | 172° |
| 2026-04-25 19:22 | -7.40858 | 160.95903 | 34395 ft | 469 kts | 172° |
| 2026-04-25 19:22 | -7.44067 | 160.96477 | 34106 ft | 469 kts | 172° |
| 2026-04-25 19:22 | -7.50575 | 160.97641 | 33526 ft | 469 kts | 172° |
| 2026-04-25 19:23 | -7.53923 | 160.98241 | 33228 ft | 470 kts | 172° |
| 2026-04-25 19:23 | -7.60558 | 160.99431 | 32643 ft | 471 kts | 172° |
| 2026-04-25 19:23 | -7.63889 | 161.00027 | 32376 ft | 472 kts | 172° |
| 2026-04-25 19:24 | -7.67302 | 161.00638 | 32108 ft | 473 kts | 172° |
| 2026-04-25 19:24 | -7.70710 | 161.01248 | 31841 ft | 473 kts | 172° |
| 2026-04-25 19:24 | -7.77436 | 161.02455 | 31316 ft | 474 kts | 172° |
| 2026-04-25 19:25 | -7.83946 | 161.03622 | 30809 ft | 475 kts | 172° |
| 2026-04-25 19:25 | -7.87243 | 161.04215 | 30554 ft | 475 kts | 172° |
| 2026-04-25 19:25 | -7.90497 | 161.04799 | 30302 ft | 476 kts | 172° |
| 2026-04-25 19:26 | -7.93783 | 161.05389 | 30047 ft | 476 kts | 172° |
| 2026-04-25 19:26 | -7.97062 | 161.05978 | 29794 ft | 477 kts | 172° |
| 2026-04-25 19:26 | -8.00349 | 161.06570 | 29541 ft | 477 kts | 172° |
| 2026-04-25 19:26 | -8.03621 | 161.07083 | 29285 ft | 476 kts | 176° |
| 2026-04-25 19:27 | -8.06955 | 161.07117 | 29031 ft | 474 kts | 186° |
| 2026-04-25 19:27 | -8.09150 | 161.06847 | 28863 ft | 473 kts | 192° |
| 2026-04-25 19:27 | -8.13343 | 161.05655 | 28531 ft | 472 kts | 203° |
| 2026-04-25 19:27 | -8.16332 | 161.04192 | 28286 ft | 472 kts | 212° |
| 2026-04-25 19:28 | -8.19136 | 161.02228 | 28033 ft | 471 kts | 220° |
| 2026-04-25 19:28 | -8.21551 | 160.99968 | 27793 ft | 471 kts | 225° |
| 2026-04-25 19:28 | -8.23926 | 160.97566 | 27543 ft | 470 kts | 226° |
| 2026-04-25 19:28 | -8.26298 | 160.95136 | 27276 ft | 467 kts | 226° |
| 2026-04-25 19:29 | -8.28703 | 160.92671 | 26952 ft | 465 kts | 226° |
| 2026-04-25 19:29 | -8.30995 | 160.90329 | 26657 ft | 464 kts | 226° |
| 2026-04-25 19:29 | -8.33322 | 160.87958 | 26258 ft | 461 kts | 226° |
| 2026-04-25 19:29 | -8.35651 | 160.85590 | 25818 ft | 458 kts | 226° |
| 2026-04-25 19:30 | -8.38034 | 160.83171 | 25332 ft | 454 kts | 226° |
| 2026-04-25 19:30 | -8.40383 | 160.80788 | 24852 ft | 450 kts | 226° |
| 2026-04-25 19:30 | -8.42738 | 160.78398 | 24360 ft | 446 kts | 226° |
| 2026-04-25 19:30 | -8.45049 | 160.76053 | 23870 ft | 442 kts | 226° |
| 2026-04-25 19:31 | -8.47267 | 160.73802 | 23412 ft | 439 kts | 226° |
| 2026-04-25 19:31 | -8.49477 | 160.71558 | 22947 ft | 435 kts | 226° |
| 2026-04-25 19:31 | -8.51603 | 160.69400 | 22481 ft | 432 kts | 226° |
| 2026-04-25 19:31 | -8.53729 | 160.67241 | 22016 ft | 429 kts | 226° |
| 2026-04-25 19:32 | -8.55885 | 160.65050 | 21530 ft | 427 kts | 226° |
| 2026-04-25 19:32 | -8.57993 | 160.62907 | 21043 ft | 425 kts | 226° |
| 2026-04-25 19:32 | -8.60132 | 160.60735 | 20544 ft | 423 kts | 226° |
| 2026-04-25 19:32 | -8.61598 | 160.59245 | 20199 ft | 422 kts | 226° |
| 2026-04-25 19:33 | -8.64419 | 160.56378 | 19510 ft | 421 kts | 226° |
| 2026-04-25 19:33 | -8.66521 | 160.54242 | 18967 ft | 421 kts | 226° |
| 2026-04-25 19:33 | -8.68631 | 160.52098 | 18436 ft | 420 kts | 226° |
| 2026-04-25 19:33 | -8.70766 | 160.49927 | 17917 ft | 419 kts | 226° |
| 2026-04-25 19:34 | -8.72833 | 160.47826 | 17431 ft | 418 kts | 226° |
| 2026-04-25 19:34 | -8.74933 | 160.45689 | 16955 ft | 415 kts | 226° |
| 2026-04-25 19:34 | -8.76991 | 160.43596 | 16506 ft | 412 kts | 226° |
| 2026-04-25 19:34 | -8.78976 | 160.41576 | 16084 ft | 408 kts | 226° |
| 2026-04-25 19:35 | -8.80984 | 160.39531 | 15665 ft | 404 kts | 226° |
| 2026-04-25 19:35 | -8.82966 | 160.37515 | 15242 ft | 400 kts | 226° |
| 2026-04-25 19:35 | -8.84929 | 160.35516 | 14820 ft | 397 kts | 226° |
| 2026-04-25 19:35 | -8.86865 | 160.33546 | 14405 ft | 394 kts | 226° |
| 2026-04-25 19:36 | -8.88806 | 160.31570 | 13984 ft | 390 kts | 226° |
| 2026-04-25 19:36 | -8.90716 | 160.29625 | 13579 ft | 387 kts | 226° |
| 2026-04-25 19:36 | -8.92585 | 160.27722 | 13193 ft | 383 kts | 226° |
| 2026-04-25 19:36 | -8.94448 | 160.25824 | 12945 ft | 375 kts | 226° |
| 2026-04-25 19:37 | -8.96264 | 160.23973 | 12708 ft | 367 kts | 225° |
| 2026-04-25 19:37 | -8.98048 | 160.22156 | 12472 ft | 359 kts | 225° |
| 2026-04-25 19:37 | -8.99833 | 160.20335 | 12229 ft | 353 kts | 225° |
| 2026-04-25 19:37 | -9.01677 | 160.18457 | 11974 ft | 346 kts | 225° |
| 2026-04-25 19:38 | -9.03433 | 160.16666 | 11725 ft | 340 kts | 225° |
| 2026-04-25 19:38 | -9.05143 | 160.14923 | 11480 ft | 334 kts | 225° |
| 2026-04-25 19:38 | -9.06840 | 160.13193 | 11233 ft | 329 kts | 225° |
| 2026-04-25 19:38 | -9.08527 | 160.11473 | 10984 ft | 325 kts | 225° |
| 2026-04-25 19:39 | -9.10131 | 160.09839 | 10742 ft | 320 kts | 225° |
| 2026-04-25 19:39 | -9.11683 | 160.08255 | 10505 ft | 317 kts | 225° |
| 2026-04-25 19:39 | -9.13278 | 160.06625 | 10259 ft | 313 kts | 225° |
| 2026-04-25 19:39 | -9.14787 | 160.05084 | 10024 ft | 309 kts | 225° |
| 2026-04-25 19:40 | -9.16350 | 160.03490 | 9855 ft | 303 kts | 225° |
| 2026-04-25 19:40 | -9.17855 | 160.01953 | 9731 ft | 296 kts | 225° |
| 2026-04-25 19:40 | -9.19286 | 160.00493 | 9612 ft | 289 kts | 225° |
| 2026-04-25 19:40 | -9.20662 | 159.99057 | 9491 ft | 282 kts | 227° |
| 2026-04-25 19:41 | -9.21983 | 159.97556 | 9368 ft | 276 kts | 229° |
| 2026-04-25 19:41 | -9.23264 | 159.96046 | 9243 ft | 270 kts | 229° |
| 2026-04-25 19:41 | -9.24472 | 159.94618 | 9122 ft | 264 kts | 229° |
| 2026-04-25 19:41 | -9.25259 | 159.93689 | 9040 ft | 259 kts | 229° |
| 2026-04-25 19:42 | -9.26815 | 159.91850 | 8875 ft | 250 kts | 229° |
| 2026-04-25 19:42 | -9.27963 | 159.90494 | 8763 ft | 241 kts | 229° |
| 2026-04-25 19:42 | -9.29044 | 159.89217 | 8643 ft | 223 kts | 229° |
| 2026-04-25 19:42 | -9.30018 | 159.88066 | 8523 ft | 206 kts | 229° |
| 2026-04-25 19:43 | -9.30943 | 159.86972 | 8385 ft | 192 kts | 229° |
| 2026-04-25 19:43 | -9.31804 | 159.85954 | 8240 ft | 178 kts | 229° |
| 2026-04-25 19:43 | -9.32648 | 159.84956 | 8102 ft | 172 kts | 229° |
| 2026-04-25 19:43 | -9.33454 | 159.84004 | 7984 ft | 172 kts | 229° |
| 2026-04-25 19:44 | -9.34243 | 159.83073 | 7868 ft | 171 kts | 229° |
| 2026-04-25 19:44 | -9.35035 | 159.82140 | 7754 ft | 171 kts | 229° |
| 2026-04-25 19:44 | -9.35837 | 159.81192 | 7633 ft | 171 kts | 229° |
| 2026-04-25 19:44 | -9.36643 | 159.80238 | 7516 ft | 171 kts | 229° |
| 2026-04-25 19:45 | -9.37450 | 159.79283 | 7397 ft | 171 kts | 229° |
| 2026-04-25 19:45 | -9.38251 | 159.78336 | 7279 ft | 171 kts | 228° |
| 2026-04-25 19:45 | -9.39053 | 159.77388 | 7162 ft | 171 kts | 228° |
| 2026-04-25 19:45 | -9.39855 | 159.76440 | 7045 ft | 170 kts | 228° |
| 2026-04-25 19:46 | -9.40666 | 159.75481 | 6924 ft | 169 kts | 228° |
| 2026-04-25 19:46 | -9.41465 | 159.74535 | 6803 ft | 168 kts | 228° |
| 2026-04-25 19:46 | -9.42264 | 159.73590 | 6681 ft | 168 kts | 228° |
| 2026-04-25 19:46 | -9.43060 | 159.72649 | 6557 ft | 168 kts | 229° |
| 2026-04-25 19:47 | -9.43868 | 159.71693 | 6432 ft | 168 kts | 229° |
| 2026-04-25 19:47 | -9.44633 | 159.70787 | 6312 ft | 167 kts | 229° |
| 2026-04-25 19:47 | -9.45424 | 159.69852 | 6186 ft | 167 kts | 229° |
| 2026-04-25 19:47 | -9.46230 | 159.68896 | 6061 ft | 167 kts | 229° |
| 2026-04-25 19:48 | -9.47042 | 159.67935 | 5931 ft | 167 kts | 228° |
| 2026-04-25 19:48 | -9.47847 | 159.66983 | 5804 ft | 167 kts | 228° |
| 2026-04-25 19:48 | -9.48648 | 159.66034 | 5677 ft | 166 kts | 228° |
| 2026-04-25 19:48 | -9.49450 | 159.65086 | 5549 ft | 165 kts | 228° |
| 2026-04-25 19:49 | -9.50253 | 159.64136 | 5417 ft | 165 kts | 228° |
| 2026-04-25 19:49 | -9.50788 | 159.63515 | 5328 ft | 164 kts | 223° |
| 2026-04-25 19:49 | -9.52097 | 159.62596 | 5156 ft | 162 kts | 200° |
| 2026-04-25 19:49 | -9.53242 | 159.62295 | 5053 ft | 160 kts | 182° |
| 2026-04-25 19:50 | -9.55490 | 159.62735 | 5047 ft | 158 kts | 148° |
| 2026-04-25 19:50 | -9.56425 | 159.63420 | 5049 ft | 158 kts | 132° |
| 2026-04-25 19:50 | -9.57113 | 159.64319 | 5051 ft | 158 kts | 116° |
| 2026-04-25 19:51 | -9.57533 | 159.65385 | 5052 ft | 158 kts | 101° |
| 2026-04-25 19:51 | -9.57642 | 159.66498 | 5054 ft | 159 kts | 86° |
| 2026-04-25 19:51 | -9.57447 | 159.67610 | 5054 ft | 159 kts | 71° |
| 2026-04-25 19:51 | -9.56965 | 159.68616 | 5057 ft | 160 kts | 56° |
| 2026-04-25 19:52 | -9.56232 | 159.69455 | 5059 ft | 160 kts | 41° |
| 2026-04-25 19:52 | -9.55287 | 159.70079 | 5061 ft | 160 kts | 28° |
| 2026-04-25 19:52 | -9.54293 | 159.70622 | 5063 ft | 159 kts | 34° |
| 2026-04-25 19:52 | -9.53424 | 159.71358 | 5067 ft | 159 kts | 49° |
| 2026-04-25 19:53 | -9.52797 | 159.72314 | 5073 ft | 159 kts | 65° |
| 2026-04-25 19:53 | -9.52477 | 159.73396 | 5079 ft | 160 kts | 81° |
| 2026-04-25 19:53 | -9.52381 | 159.74513 | 5084 ft | 160 kts | 85° |
| 2026-04-25 19:53 | -9.52329 | 159.75630 | 5082 ft | 159 kts | 86° |
| 2026-04-25 19:54 | -9.52282 | 159.76729 | 5079 ft | 159 kts | 86° |
| 2026-04-25 19:54 | -9.52229 | 159.77846 | 5077 ft | 159 kts | 86° |
| 2026-04-25 19:54 | -9.52173 | 159.78961 | 5079 ft | 159 kts | 85° |
| 2026-04-25 19:54 | -9.52137 | 159.79697 | 5080 ft | 159 kts | 86° |
| 2026-04-25 19:55 | -9.52067 | 159.81174 | 5080 ft | 159 kts | 84° |
| 2026-04-25 19:55 | -9.51904 | 159.82274 | 5083 ft | 159 kts | 77° |
| 2026-04-25 19:55 | -9.51608 | 159.83362 | 4994 ft | 160 kts | 71° |
| 2026-04-25 19:55 | -9.51238 | 159.84416 | 4754 ft | 159 kts | 69° |
| 2026-04-25 19:56 | -9.50837 | 159.85466 | 4516 ft | 158 kts | 68° |
| 2026-04-25 19:56 | -9.50426 | 159.86510 | 4281 ft | 158 kts | 68° |
| 2026-04-25 19:56 | -9.50014 | 159.87543 | 4056 ft | 157 kts | 68° |
| 2026-04-25 19:56 | -9.49602 | 159.88571 | 3824 ft | 156 kts | 68° |
| 2026-04-25 19:57 | -9.49192 | 159.89595 | 3594 ft | 156 kts | 68° |
| 2026-04-25 19:57 | -9.48781 | 159.90616 | 3362 ft | 155 kts | 68° |
| 2026-04-25 19:57 | -9.48373 | 159.91632 | 3123 ft | 155 kts | 68° |
| 2026-04-25 19:57 | -9.47971 | 159.92633 | 2912 ft | 154 kts | 68° |
| 2026-04-25 19:58 | -9.47563 | 159.93648 | 2681 ft | 154 kts | 68° |
| 2026-04-25 19:58 | -9.47154 | 159.94665 | 2429 ft | 153 kts | 68° |
| 2026-04-25 19:58 | -9.46753 | 159.95665 | 2186 ft | 152 kts | 68° |
| 2026-04-25 19:58 | -9.46345 | 159.96683 | 1942 ft | 152 kts | 69° |
| 2026-04-25 19:59 | -9.45945 | 159.97678 | 1707 ft | 151 kts | 69° |
| 2026-04-25 19:59 | -9.45559 | 159.98640 | 1470 ft | 151 kts | 69° |
| 2026-04-25 19:59 | -9.45168 | 159.99615 | 1239 ft | 150 kts | 69° |
| 2026-04-25 19:59 | -9.44788 | 160.00563 | 1011 ft | 150 kts | 69° |
| 2026-04-25 20:00 | -9.44398 | 160.01537 | 778 ft | 149 kts | 69° |
| 2026-04-25 20:00 | -9.44145 | 160.02167 | 629 ft | 149 kts | 69° |
| 2026-04-25 20:00 | -9.43635 | 160.03439 | 323 ft | 148 kts | 69° |
| 2026-04-25 20:00 | -9.43258 | 160.04378 | 98 ft | 147 kts | 69° |
| 2026-04-25 20:01 | -9.42742 | 160.05644 | 44 ft | 35 kts | 66° |
| 2026-04-25 20:01 | -9.42647 | 160.05879 | 44 ft | 34 kts | 69° |
| 2026-04-25 20:01 | -9.42570 | 160.06084 | 43 ft | 22 kts | 68° |
| 2026-04-25 20:02 | -9.42525 | 160.06197 | 43 ft | 16 kts | 67° |
| 2026-04-25 20:02 | -9.42493 | 160.06288 | 42 ft | 8 kts | 77° |
| 2026-04-25 20:02 | -9.42472 | 160.06329 | 41 ft | 2 kts | 13° |
| 2026-04-25 20:02 | -9.42466 | 160.06314 | 41 ft | 4 kts | 257° |
| 2026-04-25 20:03 | -9.42489 | 160.06259 | 42 ft | 14 kts | 243° |
| 2026-04-25 20:03 | -9.42536 | 160.06163 | 43 ft | 16 kts | 246° |
| 2026-04-25 20:03 | -9.42585 | 160.06044 | 43 ft | 19 kts | 248° |
| 2026-04-25 20:03 | -9.42638 | 160.05913 | 44 ft | 21 kts | 248° |
| 2026-04-25 20:04 | -9.42696 | 160.05768 | 44 ft | 23 kts | 248° |
| 2026-04-25 20:04 | -9.42757 | 160.05612 | 44 ft | 24 kts | 248° |
| 2026-04-25 20:04 | -9.42822 | 160.05449 | 45 ft | 25 kts | 248° |
| 2026-04-25 20:04 | -9.42888 | 160.05287 | 47 ft | 25 kts | 246° |
| 2026-04-25 20:05 | -9.42947 | 160.05144 | 47 ft | 13 kts | 250° |
| 2026-04-25 20:05 | -9.42976 | 160.05066 | 47 ft | 10 kts | 250° |
| 2026-04-25 20:05 | -9.42972 | 160.05000 | 47 ft | 9 kts | 307° |
| 2026-04-25 20:05 | -9.42939 | 160.04970 | 47 ft | 4 kts | 328° |
| 2026-04-25 20:06 | -9.42913 | 160.04950 | 47 ft | 6 kts | 309° |
| 2026-04-25 20:06 | -9.42903 | 160.04910 | 48 ft | 6 kts | 257° |
| 2026-04-25 20:06 | -9.42939 | 160.04880 | 49 ft | 8 kts | 195° |
| 2026-04-25 20:06 | -9.43001 | 160.04880 | 51 ft | 9 kts | 164° |
| 2026-04-25 20:07 | -9.43027 | 160.04887 | 52 ft | 6 kts | 168° |
| 2026-04-25 20:07 | -9.43093 | 160.04868 | 52 ft | 10 kts | 227° |
| 2026-04-25 20:07 | -9.43099 | 160.04778 | 52 ft | 18 kts | 294° |
| 2026-04-25 20:07 | -9.43009 | 160.04701 | 52 ft | 17 kts | 351° |
| 2026-04-25 20:08 | -9.42931 | 160.04691 | 52 ft | 7 kts | 332° |
| 2026-04-25 20:08 | -9.42897 | 160.04656 | 52 ft | 8 kts | 302° |
| 2026-04-25 20:08 | -9.42883 | 160.04614 | 52 ft | 6 kts | 283° |
| 2026-04-25 20:08 | -9.42879 | 160.04599 | 52 ft | 0 kts | 290° |
| 2026-04-25 20:09 | -9.42872 | 160.04593 | 52 ft | 2 kts | 325° |
| 2026-04-25 20:09 | -9.42853 | 160.04579 | 52 ft | 2 kts | 326° |
| 2026-04-25 20:09 | -9.42840 | 160.04573 | 52 ft | 2 kts | 341° |